Observation data for Wall on 01/11/2018      Previous  Date  Next       Current Mesonet Observations  Soil Data  Daily Summary Page  Observations in Plain Language
KWA1 110600Z 20012KT 12/03 A2973 RMK A01 T01190025  RH  052%=      5-min Rain = 0
KWA1 110601Z 20011KT 12/03 A2973 RMK A01 T01180025  RH  053%=      5-min Rain = 0
KWA1 110602Z 20012KT 12/03 A2973 RMK A01 T01180025  RH  053%=      5-min Rain = 0
KWA1 110603Z 20012KT 12/03 A2973 RMK A01 T01170025  RH  053%=      5-min Rain = 0
KWA1 110604Z 21011KT 12/03 A2973 RMK A01 T01180025  RH  053%=      5-min Rain = 0
KWA1 110605Z 21012KT 12/03 A2973 RMK A01 T01180025  RH  053%=      5-min Rain = 0
KWA1 110606Z 21013KT 12/03 A2973 RMK A01 T01190025  RH  053%=      5-min Rain = 0
KWA1 110607Z 21013KT 12/03 A2973 RMK A01 T01210026  RH  052%=      5-min Rain = 0
KWA1 110608Z 21013KT 12/03 A2973 RMK A01 T01210025  RH  052%=      5-min Rain = 0
KWA1 110609Z 21012KT 12/03 A2973 RMK A01 T01210026  RH  052%=      5-min Rain = 0
KWA1 110610Z 22011KT 12/03 A2973 RMK A01 T01210025  RH  052%=      5-min Rain = 0
KWA1 110611Z 21012KT 12/03 A2973 RMK A01 T01200026  RH  052%=      5-min Rain = 0
KWA1 110612Z 21012KT 12/03 A2973 RMK A01 T01210026  RH  052%=      5-min Rain = 0
KWA1 110613Z 22013KT 12/03 A2973 RMK A01 T01230026  RH  052%=      5-min Rain = 0
KWA1 110614Z 22012KT 13/03 A2973 RMK A01 T01250027  RH  051%=      5-min Rain = 0
KWA1 110615Z 22011KT 13/03 A2973 RMK A01 T01250027  RH  051%=      5-min Rain = 0
KWA1 110616Z 22011KT 12/03 A2972 RMK A01 T01240027  RH  051%=      5-min Rain = 0
KWA1 110617Z 21011KT 12/03 A2972 RMK A01 T01220026  RH  052%=      5-min Rain = 0
KWA1 110618Z 21012KT 12/03 A2972 RMK A01 T01220027  RH  052%=      5-min Rain = 0
KWA1 110619Z 21011KT 12/03 A2972 RMK A01 T01230027  RH  052%=      5-min Rain = 0
KWA1 110620Z 21011KT 12/03 A2972 RMK A01 T01240027  RH  052%=      5-min Rain = 0
KWA1 110621Z 21011KT 12/03 A2972 RMK A01 T01230027  RH  052%=      5-min Rain = 0
KWA1 110622Z 21010KT 12/03 A2972 RMK A01 T01230027  RH  052%=      5-min Rain = 0
KWA1 110623Z 21011KT 12/03 A2972 RMK A01 T01230027  RH  052%=      5-min Rain = 0
KWA1 110624Z 21011KT 12/03 A2972 RMK A01 T01220026  RH  052%=      5-min Rain = 0
KWA1 110625Z 21011KT 12/03 A2972 RMK A01 T01220027  RH  052%=      5-min Rain = 0
KWA1 110626Z 21011KT 12/03 A2972 RMK A01 T01220027  RH  052%=      5-min Rain = 0
KWA1 110627Z 21011KT 12/03 A2971 RMK A01 T01210027  RH  052%=      5-min Rain = 0
KWA1 110628Z 21011KT 12/03 A2972 RMK A01 T01220026  RH  052%=      5-min Rain = 0
KWA1 110629Z 21012KT 12/03 A2972 RMK A01 T01210027  RH  052%=      5-min Rain = 0
KWA1 110630Z 21012KT 12/03 A2972 RMK A01 T01220027  RH  052%=      5-min Rain = 0
KWA1 110631Z 22013KT 12/03 A2972 RMK A01 T01220027  RH  052%=      5-min Rain = 0
KWA1 110632Z 22012KT 12/03 A2972 RMK A01 T01240028  RH  052%=      5-min Rain = 0
KWA1 110633Z 22010KT 12/03 A2972 RMK A01 T01240027  RH  052%=      5-min Rain = 0
KWA1 110634Z 22010KT 12/03 A2972 RMK A01 T01220027  RH  052%=      5-min Rain = 0
KWA1 110635Z 22010KT 12/03 A2972 RMK A01 T01200026  RH  053%=      5-min Rain = 0
KWA1 110636Z 22010KT 12/03 A2972 RMK A01 T01180026  RH  053%=      5-min Rain = 0
KWA1 110637Z 21011KT 12/03 A2972 RMK A01 T01180027  RH  053%=      5-min Rain = 0
KWA1 110638Z 22011KT 12/03 A2972 RMK A01 T01200028  RH  053%=      5-min Rain = 0
KWA1 110639Z 22011KT 12/03 A2972 RMK A01 T01210027  RH  053%=      5-min Rain = 0
KWA1 110640Z 22010KT 12/03 A2972 RMK A01 T01210028  RH  053%=      5-min Rain = 0
KWA1 110641Z 22011KT 12/03 A2972 RMK A01 T01210027  RH  053%=      5-min Rain = 0
KWA1 110642Z 22012KT 12/03 A2971 RMK A01 T01210028  RH  053%=      5-min Rain = 0
KWA1 110643Z 22011KT 12/03 A2971 RMK A01 T01210028  RH  053%=      5-min Rain = 0
KWA1 110644Z 22012KT 12/03 A2971 RMK A01 T01200027  RH  053%=      5-min Rain = 0
KWA1 110645Z 22011KT 12/03 A2971 RMK A01 T01190028  RH  053%=      5-min Rain = 0
KWA1 110646Z 22011KT 12/03 A2971 RMK A01 T01190028  RH  054%=      5-min Rain = 0
KWA1 110647Z 22012KT 12/03 A2971 RMK A01 T01190028  RH  054%=      5-min Rain = 0
KWA1 110648Z 22012KT 12/03 A2971 RMK A01 T01190028  RH  054%=      5-min Rain = 0
KWA1 110649Z 22013KT 12/03 A2971 RMK A01 T01200028  RH  054%=      5-min Rain = 0
KWA1 110650Z 21014KT 12/03 A2971 RMK A01 T01190028  RH  054%=      5-min Rain = 0
KWA1 110651Z 21014KT 12/03 A2971 RMK A01 T01190028  RH  054%=      5-min Rain = 0
KWA1 110652Z 21014KT 12/03 A2971 RMK A01 T01190028  RH  054%=      5-min Rain = 0
KWA1 110653Z 21013KT 12/03 A2971 RMK A01 T01190029  RH  054%=      5-min Rain = 0
KWA1 110654Z 21013KT 12/03 A2971 RMK A01 T01190029  RH  054%=      5-min Rain = 0
KWA1 110655Z 21013KT 12/03 A2971 RMK A01 T01180028  RH  054%=      5-min Rain = 0
KWA1 110656Z 21012KT 12/03 A2971 RMK A01 T01170028  RH  054%=      5-min Rain = 0
KWA1 110657Z 21013KT 12/03 A2971 RMK A01 T01170029  RH  055%=      5-min Rain = 0
KWA1 110658Z 21015KT 12/03 A2971 RMK A01 T01170029  RH  055%=      5-min Rain = 0
KWA1 110659Z 20015KT 12/03 A2971 RMK A01 T01170029  RH  055%=      5-min Rain = 0
KWA1 110700Z 20015KT 12/03 A2971 RMK A01 T01170029  RH  055%=      5-min Rain = 0
KWA1 110701Z 21014KT 12/03 A2971 RMK A01 T01180029  RH  054%=      5-min Rain = 0
KWA1 110702Z 21014KT 12/03 A2971 RMK A01 T01180029  RH  054%=      5-min Rain = 0
KWA1 110703Z 21013KT 12/03 A2971 RMK A01 T01170028  RH  055%=      5-min Rain = 0
KWA1 110704Z 22012KT 12/03 A2971 RMK A01 T01180029  RH  054%=      5-min Rain = 0
KWA1 110705Z 22012KT 12/03 A2971 RMK A01 T01180029  RH  054%=      5-min Rain = 0
KWA1 110706Z 21011KT 12/03 A2971 RMK A01 T01170028  RH  054%=      5-min Rain = 0
KWA1 110707Z 22011KT 12/03 A2972 RMK A01 T01160028  RH  055%=      5-min Rain = 0
KWA1 110708Z 23011KT 12/03 A2972 RMK A01 T01150028  RH  055%=      5-min Rain = 0
KWA1 110709Z 23009KT 11/03 A2972 RMK A01 T01140028  RH  056%=      5-min Rain = 0
KWA1 110710Z 22009KT 11/03 A2972 RMK A01 T01110028  RH  056%=      5-min Rain = 0
KWA1 110711Z 22008KT 11/03 A2972 RMK A01 T01100028  RH  057%=      5-min Rain = 0
KWA1 110712Z 22008KT 11/03 A2972 RMK A01 T01090028  RH  057%=      5-min Rain = 0
KWA1 110713Z 22009KT 11/03 A2972 RMK A01 T01080027  RH  058%=      5-min Rain = 0
KWA1 110714Z 22011KT 11/03 A2972 RMK A01 T01070028  RH  058%=      5-min Rain = 0
KWA1 110715Z 22011KT 11/03 A2972 RMK A01 T01080029  RH  058%=      5-min Rain = 0
KWA1 110716Z 22011KT 11/03 A2972 RMK A01 T01080029  RH  058%=      5-min Rain = 0
KWA1 110717Z 22012KT 11/03 A2972 RMK A01 T01090029  RH  058%=      5-min Rain = 0
KWA1 110718Z 22012KT 11/03 A2972 RMK A01 T01100029  RH  057%=      5-min Rain = 0
KWA1 110719Z 22012KT 11/03 A2972 RMK A01 T01100029  RH  057%=      5-min Rain = 0
KWA1 110720Z 22012KT 11/03 A2972 RMK A01 T01100029  RH  057%=      5-min Rain = 0
KWA1 110721Z 22012KT 11/03 A2972 RMK A01 T01090029  RH  057%=      5-min Rain = 0
KWA1 110722Z 22011KT 11/03 A2972 RMK A01 T01090029  RH  058%=      5-min Rain = 0
KWA1 110723Z 22012KT 11/03 A2972 RMK A01 T01080028  RH  058%=      5-min Rain = 0
KWA1 110724Z 22011KT 11/03 A2972 RMK A01 T01080029  RH  058%=      5-min Rain = 0
KWA1 110725Z 22011KT 11/03 A2972 RMK A01 T01080029  RH  058%=      5-min Rain = 0
KWA1 110726Z 22011KT 11/03 A2972 RMK A01 T01070029  RH  058%=      5-min Rain = 0
KWA1 110727Z 22011KT 11/03 A2972 RMK A01 T01070029  RH  058%=      5-min Rain = 0
KWA1 110728Z 22011KT 11/03 A2972 RMK A01 T01060029  RH  059%=      5-min Rain = 0
KWA1 110729Z 22010KT 11/03 A2972 RMK A01 T01060028  RH  059%=      5-min Rain = 0
KWA1 110730Z 22009KT 11/03 A2972 RMK A01 T01050028  RH  059%=      5-min Rain = 0
KWA1 110731Z 22009KT 10/03 A2972 RMK A01 T01040028  RH  059%=      5-min Rain = 0
KWA1 110732Z 22009KT 10/03 A2972 RMK A01 T01040028  RH  060%=      5-min Rain = 0
KWA1 110733Z 21009KT 10/03 A2972 RMK A01 T01040029  RH  060%=      5-min Rain = 0
KWA1 110734Z 22010KT 10/03 A2972 RMK A01 T01030028  RH  060%=      5-min Rain = 0
KWA1 110735Z 22009KT 10/03 A2972 RMK A01 T01030029  RH  060%=      5-min Rain = 0
KWA1 110736Z 22010KT 10/03 A2972 RMK A01 T01030028  RH  060%=      5-min Rain = 0
KWA1 110737Z 21009KT 10/03 A2972 RMK A01 T01030028  RH  060%=      5-min Rain = 0
KWA1 110738Z 21009KT 10/03 A2972 RMK A01 T01040029  RH  060%=      5-min Rain = 0
KWA1 110739Z 22009KT 10/03 A2972 RMK A01 T01030028  RH  060%=      5-min Rain = 0
KWA1 110740Z 21009KT 10/03 A2972 RMK A01 T01020028  RH  060%=      5-min Rain = 0
KWA1 110741Z 21009KT 10/03 A2972 RMK A01 T01020028  RH  060%=      5-min Rain = 0
KWA1 110742Z 21009KT 10/03 A2972 RMK A01 T01010028  RH  060%=      5-min Rain = 0
KWA1 110743Z 22009KT 10/03 A2972 RMK A01 T01010028  RH  060%=      5-min Rain = 0
KWA1 110744Z 21009KT 10/03 A2972 RMK A01 T01000028  RH  061%=      5-min Rain = 0
KWA1 110745Z 21009KT 10/03 A2972 RMK A01 T01000028  RH  061%=      5-min Rain = 0
KWA1 110746Z 22009KT 10/03 A2972 RMK A01 T00990027  RH  061%=      5-min Rain = 0
KWA1 110747Z 22009KT 10/03 A2972 RMK A01 T00990028  RH  061%=      5-min Rain = 0
KWA1 110748Z 21009KT 10/03 A2972 RMK A01 T00990028  RH  061%=      5-min Rain = 0
KWA1 110749Z 21008KT 10/03 A2972 RMK A01 T00990027  RH  061%=      5-min Rain = 0
KWA1 110750Z 22008KT 10/03 A2972 RMK A01 T00990028  RH  061%=      5-min Rain = 0
KWA1 110751Z 22008KT 10/03 A2973 RMK A01 T00980027  RH  061%=      5-min Rain = 0
KWA1 110752Z 22009KT 10/03 A2973 RMK A01 T00980027  RH  062%=      5-min Rain = 0
KWA1 110753Z 22009KT 10/03 A2973 RMK A01 T00980027  RH  062%=      5-min Rain = 0
KWA1 110754Z 22009KT 10/03 A2973 RMK A01 T00970027  RH  062%=      5-min Rain = 0
KWA1 110755Z 22009KT 10/03 A2973 RMK A01 T00970027  RH  062%=      5-min Rain = 0
KWA1 110756Z 22009KT 10/03 A2973 RMK A01 T00970027  RH  062%=      5-min Rain = 0
KWA1 110757Z 22008KT 10/03 A2973 RMK A01 T00970027  RH  062%=      5-min Rain = 0
KWA1 110758Z 22009KT 10/03 A2973 RMK A01 T00970027  RH  062%=      5-min Rain = 0
KWA1 110759Z 22009KT 10/03 A2973 RMK A01 T00970027  RH  062%=      5-min Rain = 0
KWA1 110800Z 22009KT 10/03 A2973 RMK A01 T00970028  RH  062%=      5-min Rain = 0
KWA1 110801Z 22009KT 10/03 A2973 RMK A01 T00980028  RH  062%=      5-min Rain = 0
KWA1 110802Z 22010KT 10/03 A2973 RMK A01 T00980028  RH  062%=      5-min Rain = 0
KWA1 110803Z 22010KT 10/03 A2973 RMK A01 T00990029  RH  062%=      5-min Rain = 0
KWA1 110804Z 22010KT 10/03 A2973 RMK A01 T01010029  RH  061%=      5-min Rain = 0
KWA1 110805Z 22010KT 10/03 A2973 RMK A01 T01020030  RH  061%=      5-min Rain = 0
KWA1 110806Z 22010KT 10/03 A2973 RMK A01 T01020029  RH  061%=      5-min Rain = 0
KWA1 110807Z 22010KT 10/03 A2973 RMK A01 T01030030  RH  060%=      5-min Rain = 0
KWA1 110808Z 22010KT 10/03 A2973 RMK A01 T01030029  RH  060%=      5-min Rain = 0
KWA1 110809Z 22010KT 10/03 A2973 RMK A01 T01030029  RH  060%=      5-min Rain = 0
KWA1 110810Z 22010KT 10/03 A2973 RMK A01 T01020029  RH  060%=      5-min Rain = 0
KWA1 110811Z 22009KT 10/03 A2973 RMK A01 T01020029  RH  060%=      5-min Rain = 0
KWA1 110812Z 22008KT 10/03 A2973 RMK A01 T01020029  RH  060%=      5-min Rain = 0
KWA1 110813Z 22008KT 10/03 A2973 RMK A01 T01020029  RH  061%=      5-min Rain = 0
KWA1 110814Z 22009KT 10/03 A2973 RMK A01 T01020029  RH  061%=      5-min Rain = 0
KWA1 110815Z 23008KT 10/03 A2973 RMK A01 T01020030  RH  061%=      5-min Rain = 0
KWA1 110816Z 23008KT 10/03 A2973 RMK A01 T01020029  RH  061%=      5-min Rain = 0
KWA1 110817Z 23008KT 10/03 A2973 RMK A01 T01020029  RH  061%=      5-min Rain = 0
KWA1 110818Z 23008KT 10/03 A2973 RMK A01 T01010030  RH  061%=      5-min Rain = 0
KWA1 110819Z 22008KT 10/03 A2973 RMK A01 T01010029  RH  061%=      5-min Rain = 0
KWA1 110820Z 23009KT 10/03 A2973 RMK A01 T01010030  RH  061%=      5-min Rain = 0
KWA1 110821Z 23009KT 10/03 A2973 RMK A01 T01010030  RH  061%=      5-min Rain = 0
KWA1 110822Z 23009KT 10/03 A2973 RMK A01 T01010030  RH  061%=      5-min Rain = 0
KWA1 110823Z 23009KT 10/03 A2973 RMK A01 T01010030  RH  061%=      5-min Rain = 0
KWA1 110824Z 23009KT 10/03 A2973 RMK A01 T01020030  RH  061%=      5-min Rain = 0
KWA1 110825Z 23009KT 10/03 A2973 RMK A01 T01020030  RH  061%=      5-min Rain = 0
KWA1 110826Z 22010KT 10/03 A2973 RMK A01 T01020030  RH  061%=      5-min Rain = 0
KWA1 110827Z 22010KT 10/03 A2973 RMK A01 T01010030  RH  061%=      5-min Rain = 0
KWA1 110828Z 23009KT 10/03 A2973 RMK A01 T01020031  RH  061%=      5-min Rain = 0
KWA1 110829Z 23009KT 10/03 A2973 RMK A01 T01030031  RH  061%=      5-min Rain = 0
KWA1 110830Z 23009KT 10/03 A2973 RMK A01 T01030031  RH  061%=      5-min Rain = 0
KWA1 110831Z 22010KT 10/03 A2973 RMK A01 T01020030  RH  061%=      5-min Rain = 0
KWA1 110832Z 22009KT 10/03 A2973 RMK A01 T01020030  RH  061%=      5-min Rain = 0
KWA1 110833Z 22010KT 10/03 A2973 RMK A01 T01020031  RH  061%=      5-min Rain = 0
KWA1 110834Z 22009KT 10/03 A2973 RMK A01 T01020031  RH  061%=      5-min Rain = 0
KWA1 110835Z 22010KT 10/03 A2973 RMK A01 T01010030  RH  061%=      5-min Rain = 0
KWA1 110836Z 22010KT 10/03 A2973 RMK A01 T01000030  RH  062%=      5-min Rain = 0
KWA1 110837Z 22010KT 10/03 A2973 RMK A01 T01000030  RH  062%=      5-min Rain = 0
KWA1 110838Z 21011KT 10/03 A2973 RMK A01 T00990030  RH  062%=      5-min Rain = 0
KWA1 110839Z 21011KT 10/03 A2973 RMK A01 T00990030  RH  062%=      5-min Rain = 0
KWA1 110840Z 21011KT 10/03 A2973 RMK A01 T00990030  RH  062%=      5-min Rain = 0
KWA1 110841Z 22011KT 10/03 A2973 RMK A01 T01000030  RH  062%=      5-min Rain = 0
KWA1 110842Z 21010KT 10/03 A2973 RMK A01 T01010031  RH  062%=      5-min Rain = 0
KWA1 110843Z 22010KT 10/03 A2973 RMK A01 T01010030  RH  061%=      5-min Rain = 0
KWA1 110844Z 22010KT 10/03 A2973 RMK A01 T01010030  RH  061%=      5-min Rain = 0
KWA1 110845Z 22011KT 10/03 A2973 RMK A01 T01010030  RH  061%=      5-min Rain = 0
KWA1 110846Z 22011KT 10/03 A2973 RMK A01 T01000030  RH  062%=      5-min Rain = 0
KWA1 110847Z 22011KT 10/03 A2973 RMK A01 T01010030  RH  061%=      5-min Rain = 0
KWA1 110848Z 22010KT 10/03 A2973 RMK A01 T01030031  RH  061%=      5-min Rain = 0
KWA1 110849Z 22011KT 10/03 A2973 RMK A01 T01040031  RH  060%=      5-min Rain = 0
KWA1 110850Z 23011KT 10/03 A2973 RMK A01 T01040031  RH  060%=      5-min Rain = 0
KWA1 110851Z 22011KT 11/03 A2973 RMK A01 T01050031  RH  060%=      5-min Rain = 0
KWA1 110852Z 23011KT 11/03 A2973 RMK A01 T01070032  RH  060%=      5-min Rain = 0
KWA1 110853Z 23010KT 11/03 A2973 RMK A01 T01090032  RH  059%=      5-min Rain = 0
KWA1 110854Z 23010KT 11/03 A2973 RMK A01 T01080032  RH  059%=      5-min Rain = 0
KWA1 110855Z 23009KT 11/03 A2973 RMK A01 T01070031  RH  059%=      5-min Rain = 0
KWA1 110856Z 23009KT 11/03 A2973 RMK A01 T01060031  RH  060%=      5-min Rain = 0
KWA1 110857Z 23009KT 11/03 A2973 RMK A01 T01050030  RH  060%=      5-min Rain = 0
KWA1 110858Z 23009KT 10/03 A2973 RMK A01 T01030030  RH  061%=      5-min Rain = 0
KWA1 110859Z 23009KT 10/03 A2973 RMK A01 T01030031  RH  061%=      5-min Rain = 0
KWA1 110900Z 24010KT 10/03 A2973 RMK A01 T01030031  RH  061%=      5-min Rain = 0
KWA1 110901Z 24010KT 10/03 A2973 RMK A01 T01040031  RH  061%=      5-min Rain = 0
KWA1 110902Z 24009KT 11/03 A2973 RMK A01 T01050031  RH  060%=      5-min Rain = 0
KWA1 110903Z 24009KT 11/03 A2973 RMK A01 T01050031  RH  060%=      5-min Rain = 0
KWA1 110904Z 24009KT 11/03 A2973 RMK A01 T01050031  RH  060%=      5-min Rain = 0
KWA1 110905Z 23009KT 10/03 A2973 RMK A01 T01040031  RH  060%=      5-min Rain = 0
KWA1 110906Z 23011KT 10/03 A2973 RMK A01 T01020030  RH  061%=      5-min Rain = 0
KWA1 110907Z 23011KT 10/03 A2973 RMK A01 T01010030  RH  061%=      5-min Rain = 0
KWA1 110908Z 24011KT 10/03 A2974 RMK A01 T01020031  RH  061%=      5-min Rain = 0
KWA1 110909Z 23011KT 10/03 A2974 RMK A01 T01040032  RH  061%=      5-min Rain = 0
KWA1 110910Z 23011KT 11/03 A2974 RMK A01 T01050032  RH  061%=      5-min Rain = 0
KWA1 110911Z 23011KT 11/03 A2974 RMK A01 T01050032  RH  060%=      5-min Rain = 0
KWA1 110912Z 23011KT 11/03 A2974 RMK A01 T01060032  RH  060%=      5-min Rain = 0
KWA1 110913Z 23011KT 11/03 A2974 RMK A01 T01070032  RH  060%=      5-min Rain = 0
KWA1 110914Z 23010KT 11/03 A2974 RMK A01 T01070032  RH  060%=      5-min Rain = 0
KWA1 110915Z 23011KT 11/03 A2974 RMK A01 T01070033  RH  060%=      5-min Rain = 0
KWA1 110916Z 23013KT 11/03 A2974 RMK A01 T01080033  RH  060%=      5-min Rain = 0
KWA1 110917Z 23012KT 11/03 A2974 RMK A01 T01120034  RH  059%=      5-min Rain = 0
KWA1 110918Z 23012KT 11/03 A2974 RMK A01 T01140034  RH  058%=      5-min Rain = 0
KWA1 110919Z 23012KT 11/03 A2974 RMK A01 T01130033  RH  058%=      5-min Rain = 0
KWA1 110920Z 22011KT 11/03 A2974 RMK A01 T01120033  RH  058%=      5-min Rain = 0
KWA1 110921Z 23012KT 11/03 A2974 RMK A01 T01110033  RH  059%=      5-min Rain = 0
KWA1 110922Z 23011KT 11/03 A2974 RMK A01 T01110033  RH  058%=      5-min Rain = 0
KWA1 110923Z 23011KT 11/03 A2974 RMK A01 T01120033  RH  058%=      5-min Rain = 0
KWA1 110924Z 23012KT 11/03 A2974 RMK A01 T01120033  RH  058%=      5-min Rain = 0
KWA1 110925Z 22011KT 11/03 A2974 RMK A01 T01120033  RH  058%=      5-min Rain = 0
KWA1 110926Z 22011KT 11/03 A2974 RMK A01 T01120033  RH  058%=      5-min Rain = 0
KWA1 110927Z 23011KT 11/03 A2974 RMK A01 T01120033  RH  058%=      5-min Rain = 0
KWA1 110928Z 23010KT 11/03 A2974 RMK A01 T01110033  RH  058%=      5-min Rain = 0
KWA1 110929Z 23009KT 11/03 A2974 RMK A01 T01110033  RH  059%=      5-min Rain = 0
KWA1 110930Z 23009KT 11/03 A2974 RMK A01 T01090032  RH  059%=      5-min Rain = 0
KWA1 110931Z 23009KT 11/03 A2974 RMK A01 T01080032  RH  060%=      5-min Rain = 0
KWA1 110932Z 22009KT 11/03 A2974 RMK A01 T01060032  RH  060%=      5-min Rain = 0
KWA1 110933Z 21009KT 11/03 A2974 RMK A01 T01050032  RH  061%=      5-min Rain = 0
KWA1 110934Z 21009KT 10/03 A2974 RMK A01 T01030032  RH  061%=      5-min Rain = 0
KWA1 110935Z 22009KT 10/03 A2974 RMK A01 T01030032  RH  062%=      5-min Rain = 0
KWA1 110936Z 21009KT 10/03 A2974 RMK A01 T01020032  RH  062%=      5-min Rain = 0
KWA1 110937Z 21008KT 10/03 A2974 RMK A01 T01010032  RH  062%=      5-min Rain = 0
KWA1 110938Z 21009KT 10/03 A2974 RMK A01 T01000031  RH  062%=      5-min Rain = 0
KWA1 110939Z 22008KT 10/03 A2974 RMK A01 T00980031  RH  063%=      5-min Rain = 0
KWA1 110940Z 22008KT 10/03 A2974 RMK A01 T00970031  RH  063%=      5-min Rain = 0
KWA1 110941Z 22009KT 10/03 A2974 RMK A01 T00960031  RH  064%=      5-min Rain = 0
KWA1 110942Z 22010KT 10/03 A2974 RMK A01 T00960031  RH  064%=      5-min Rain = 0
KWA1 110943Z 22010KT 10/03 A2974 RMK A01 T00970032  RH  064%=      5-min Rain = 0
KWA1 110944Z 22010KT 10/03 A2974 RMK A01 T00990032  RH  063%=      5-min Rain = 0
KWA1 110945Z 22010KT 10/03 A2974 RMK A01 T01000032  RH  063%=      5-min Rain = 0
KWA1 110946Z 22010KT 10/03 A2974 RMK A01 T01000032  RH  063%=      5-min Rain = 0
KWA1 110947Z 22011KT 10/03 A2974 RMK A01 T01000032  RH  063%=      5-min Rain = 0
KWA1 110948Z 22011KT 10/03 A2974 RMK A01 T01000032  RH  063%=      5-min Rain = 0
KWA1 110949Z 22010KT 10/03 A2974 RMK A01 T01020032  RH  062%=      5-min Rain = 0
KWA1 110950Z 22011KT 10/03 A2974 RMK A01 T01030032  RH  062%=      5-min Rain = 0
KWA1 110951Z 22011KT 10/03 A2974 RMK A01 T01030032  RH  061%=      5-min Rain = 0
KWA1 110952Z 22011KT 10/03 A2974 RMK A01 T01030032  RH  061%=      5-min Rain = 0
KWA1 110953Z 22010KT 10/03 A2974 RMK A01 T01030032  RH  061%=      5-min Rain = 0
KWA1 110954Z 22010KT 10/03 A2974 RMK A01 T01020032  RH  062%=      5-min Rain = 0
KWA1 110955Z 22009KT 10/03 A2974 RMK A01 T01010032  RH  062%=      5-min Rain = 0
KWA1 110956Z 22010KT 10/03 A2974 RMK A01 T01000031  RH  062%=      5-min Rain = 0
KWA1 110957Z 22009KT 10/03 A2974 RMK A01 T00990031  RH  063%=      5-min Rain = 0
KWA1 110958Z 22009KT 10/03 A2974 RMK A01 T00990032  RH  063%=      5-min Rain = 0
KWA1 110959Z 22009KT 10/03 A2974 RMK A01 T00980031  RH  063%=      5-min Rain = 0
KWA1 111000Z 22009KT 10/03 A2974 RMK A01 T00970031  RH  063%=      5-min Rain = 0
KWA1 111001Z 22009KT 10/03 A2974 RMK A01 T00970031  RH  063%=      5-min Rain = 0
KWA1 111002Z 22010KT 10/03 A2974 RMK A01 T00960031  RH  064%=      5-min Rain = 0
KWA1 111003Z 22010KT 10/03 A2974 RMK A01 T00960031  RH  064%=      5-min Rain = 0
KWA1 111004Z 22010KT 10/03 A2974 RMK A01 T00970031  RH  064%=      5-min Rain = 0
KWA1 111005Z 22010KT 10/03 A2974 RMK A01 T00980031  RH  063%=      5-min Rain = 0
KWA1 111006Z 22011KT 10/03 A2974 RMK A01 T00990031  RH  063%=      5-min Rain = 0
KWA1 111007Z 23010KT 10/03 A2974 RMK A01 T01000031  RH  062%=      5-min Rain = 0
KWA1 111008Z 23010KT 10/03 A2974 RMK A01 T01010031  RH  062%=      5-min Rain = 0
KWA1 111009Z 23011KT 10/03 A2974 RMK A01 T01020031  RH  061%=      5-min Rain = 0
KWA1 111010Z 23010KT 10/03 A2974 RMK A01 T01030030  RH  061%=      5-min Rain = 0
KWA1 111011Z 23010KT 10/03 A2974 RMK A01 T01020030  RH  061%=      5-min Rain = 0
KWA1 111012Z 23010KT 10/03 A2974 RMK A01 T01020031  RH  061%=      5-min Rain = 0
KWA1 111013Z 22010KT 10/03 A2974 RMK A01 T01020031  RH  061%=      5-min Rain = 0
KWA1 111014Z 22010KT 10/03 A2974 RMK A01 T01020031  RH  061%=      5-min Rain = 0
KWA1 111015Z 22010KT 10/03 A2974 RMK A01 T01020030  RH  061%=      5-min Rain = 0
KWA1 111016Z 21011KT 10/03 A2974 RMK A01 T01030030  RH  061%=      5-min Rain = 0
KWA1 111017Z 21010KT 10/03 A2974 RMK A01 T01030030  RH  061%=      5-min Rain = 0
KWA1 111018Z 21010KT 10/03 A2974 RMK A01 T01030030  RH  061%=      5-min Rain = 0
KWA1 111019Z 21011KT 10/03 A2974 RMK A01 T01030030  RH  061%=      5-min Rain = 0
KWA1 111020Z 21010KT 10/03 A2974 RMK A01 T01020030  RH  061%=      5-min Rain = 0
KWA1 111021Z 21010KT 10/03 A2974 RMK A01 T01020031  RH  061%=      5-min Rain = 0
KWA1 111022Z 22011KT 10/03 A2974 RMK A01 T01020031  RH  061%=      5-min Rain = 0
KWA1 111023Z 22010KT 10/03 A2974 RMK A01 T01030031  RH  061%=      5-min Rain = 0
KWA1 111024Z 22011KT 10/03 A2974 RMK A01 T01040031  RH  061%=      5-min Rain = 0
KWA1 111025Z 22011KT 11/03 A2974 RMK A01 T01050031  RH  060%=      5-min Rain = 0
KWA1 111026Z 22010KT 11/03 A2974 RMK A01 T01060031  RH  060%=      5-min Rain = 0
KWA1 111027Z 22011KT 11/03 A2974 RMK A01 T01070032  RH  060%=      5-min Rain = 0
KWA1 111028Z 22011KT 11/03 A2974 RMK A01 T01080032  RH  059%=      5-min Rain = 0
KWA1 111029Z 22011KT 11/03 A2974 RMK A01 T01080032  RH  059%=      5-min Rain = 0
KWA1 111030Z 22012KT 11/03 A2974 RMK A01 T01090032  RH  059%=      5-min Rain = 0
KWA1 111031Z 22013KT 11/03 A2974 RMK A01 T01100032  RH  058%=      5-min Rain = 0
KWA1 111032Z 22011KT 11/03 A2974 RMK A01 T01120032  RH  058%=      5-min Rain = 0
KWA1 111033Z 22011KT 11/03 A2974 RMK A01 T01130032  RH  058%=      5-min Rain = 0
KWA1 111034Z 22012KT 11/03 A2974 RMK A01 T01130032  RH  058%=      5-min Rain = 0
KWA1 111035Z 22011KT 11/03 A2974 RMK A01 T01130032  RH  057%=      5-min Rain = 0
KWA1 111036Z 23012KT 11/03 A2974 RMK A01 T01140032  RH  057%=      5-min Rain = 0
KWA1 111037Z 22011KT 12/03 A2974 RMK A01 T01150032  RH  057%=      5-min Rain = 0
KWA1 111038Z 22012KT 12/03 A2974 RMK A01 T01150032  RH  056%=      5-min Rain = 0
KWA1 111039Z 22013KT 12/03 A2974 RMK A01 T01160032  RH  056%=      5-min Rain = 0
KWA1 111040Z 22012KT 12/03 A2973 RMK A01 T01170032  RH  056%=      5-min Rain = 0
KWA1 111041Z 22013KT 12/03 A2973 RMK A01 T01170032  RH  056%=      5-min Rain = 0
KWA1 111042Z 22013KT 12/03 A2973 RMK A01 T01180032  RH  055%=      5-min Rain = 0
KWA1 111043Z 22012KT 12/03 A2973 RMK A01 T01190031  RH  055%=      5-min Rain = 0
KWA1 111044Z 22012KT 12/03 A2974 RMK A01 T01210031  RH  054%=      5-min Rain = 0
KWA1 111045Z 22013KT 12/03 A2973 RMK A01 T01200031  RH  054%=      5-min Rain = 0
KWA1 111046Z 22011KT 12/03 A2974 RMK A01 T01200031  RH  054%=      5-min Rain = 0
KWA1 111047Z 22012KT 12/03 A2974 RMK A01 T01200032  RH  055%=      5-min Rain = 0
KWA1 111048Z 22012KT 12/03 A2974 RMK A01 T01190032  RH  055%=      5-min Rain = 0
KWA1 111049Z 22012KT 12/03 A2974 RMK A01 T01180032  RH  056%=      5-min Rain = 0
KWA1 111050Z 22012KT 12/03 A2974 RMK A01 T01170032  RH  056%=      5-min Rain = 0
KWA1 111051Z 22011KT 12/03 A2974 RMK A01 T01170033  RH  056%=      5-min Rain = 0
KWA1 111052Z 22011KT 12/03 A2974 RMK A01 T01170033  RH  056%=      5-min Rain = 0
KWA1 111053Z 21011KT 12/03 A2974 RMK A01 T01160033  RH  057%=      5-min Rain = 0
KWA1 111054Z 22010KT 12/03 A2974 RMK A01 T01150033  RH  057%=      5-min Rain = 0
KWA1 111055Z 22010KT 12/03 A2974 RMK A01 T01150034  RH  057%=      5-min Rain = 0
KWA1 111056Z 21010KT 12/03 A2974 RMK A01 T01150034  RH  057%=      5-min Rain = 0
KWA1 111057Z 22009KT 11/03 A2974 RMK A01 T01140034  RH  058%=      5-min Rain = 0
KWA1 111058Z 21009KT 11/03 A2973 RMK A01 T01140034  RH  058%=      5-min Rain = 0
KWA1 111059Z 21009KT 11/04 A2973 RMK A01 T01140035  RH  058%=      5-min Rain = 0
KWA1 111100Z 21010KT 11/04 A2974 RMK A01 T01130035  RH  059%=      5-min Rain = 0
KWA1 111101Z 21010KT 11/04 A2974 RMK A01 T01130035  RH  059%=      5-min Rain = 0
KWA1 111102Z 21009KT 11/04 A2974 RMK A01 T01120035  RH  059%=      5-min Rain = 0
KWA1 111103Z 21010KT 11/04 A2974 RMK A01 T01120035  RH  059%=      5-min Rain = 0
KWA1 111104Z 22011KT 11/03 A2974 RMK A01 T01120034  RH  059%=      5-min Rain = 0
KWA1 111105Z 23011KT 11/03 A2974 RMK A01 T01130034  RH  058%=      5-min Rain = 0
KWA1 111106Z 22011KT 12/03 A2974 RMK A01 T01150034  RH  057%=      5-min Rain = 0
KWA1 111107Z 23011KT 12/03 A2974 RMK A01 T01170033  RH  057%=      5-min Rain = 0
KWA1 111108Z 23014KT 12/03 A2974 RMK A01 T01190032  RH  055%=      5-min Rain = 0
KWA1 111109Z 23011KT 12/03 A2974 RMK A01 T01230033  RH  054%=      5-min Rain = 0
KWA1 111110Z 23011KT 12/03 A2974 RMK A01 T01220033  RH  054%=      5-min Rain = 0
KWA1 111111Z 23012KT 12/03 A2974 RMK A01 T01210032  RH  055%=      5-min Rain = 0
KWA1 111112Z 23014KT 12/03 A2974 RMK A01 T01210032  RH  054%=      5-min Rain = 0
KWA1 111113Z 23013KT 12/03 A2974 RMK A01 T01240031  RH  053%=      5-min Rain = 0
KWA1 111114Z 23012KT 13/03 A2974 RMK A01 T01260031  RH  053%=      5-min Rain = 0
KWA1 111115Z 23012KT 13/03 A2974 RMK A01 T01250031  RH  052%=      5-min Rain = 0
KWA1 111116Z 23011KT 13/03 A2974 RMK A01 T01250030  RH  052%=      5-min Rain = 0
KWA1 111117Z 24011KT 13/03 A2974 RMK A01 T01260031  RH  053%=      5-min Rain = 0
KWA1 111118Z 24010KT 13/03 A2974 RMK A01 T01250031  RH  053%=      5-min Rain = 0
KWA1 111119Z 24011KT 12/03 A2974 RMK A01 T01240030  RH  053%=      5-min Rain = 0
KWA1 111120Z 24011KT 13/03 A2974 RMK A01 T01250030  RH  053%=      5-min Rain = 0
KWA1 111121Z 23010KT 13/03 A2974 RMK A01 T01250030  RH  052%=      5-min Rain = 0
KWA1 111122Z 24010KT 13/03 A2974 RMK A01 T01250031  RH  052%=      5-min Rain = 0
KWA1 111123Z 23011KT 13/03 A2974 RMK A01 T01250031  RH  052%=      5-min Rain = 0
KWA1 111124Z 23011KT 13/03 A2974 RMK A01 T01250031  RH  053%=      5-min Rain = 0
KWA1 111125Z 23011KT 13/03 A2974 RMK A01 T01250031  RH  053%=      5-min Rain = 0
KWA1 111126Z 23011KT 12/03 A2974 RMK A01 T01240032  RH  053%=      5-min Rain = 0
KWA1 111127Z 23011KT 12/03 A2974 RMK A01 T01230031  RH  054%=      5-min Rain = 0
KWA1 111128Z 22010KT 12/03 A2974 RMK A01 T01230032  RH  054%=      5-min Rain = 0
KWA1 111129Z 22011KT 12/03 A2974 RMK A01 T01220032  RH  054%=      5-min Rain = 0
KWA1 111130Z 22010KT 12/03 A2974 RMK A01 T01220032  RH  054%=      5-min Rain = 0
KWA1 111131Z 22009KT 12/03 A2974 RMK A01 T01210033  RH  055%=      5-min Rain = 0
KWA1 111132Z 22009KT 12/03 A2974 RMK A01 T01200033  RH  055%=      5-min Rain = 0
KWA1 111133Z 22009KT 12/03 A2974 RMK A01 T01200033  RH  055%=      5-min Rain = 0
KWA1 111134Z 22009KT 12/03 A2974 RMK A01 T01190033  RH  055%=      5-min Rain = 0
KWA1 111135Z 22010KT 12/03 A2974 RMK A01 T01190033  RH  056%=      5-min Rain = 0
KWA1 111136Z 22009KT 12/03 A2974 RMK A01 T01190033  RH  056%=      5-min Rain = 0
KWA1 111137Z 22010KT 12/03 A2974 RMK A01 T01180033  RH  056%=      5-min Rain = 0
KWA1 111138Z 22010KT 12/03 A2974 RMK A01 T01180033  RH  056%=      5-min Rain = 0
KWA1 111139Z 22009KT 12/03 A2974 RMK A01 T01180033  RH  056%=      5-min Rain = 0
KWA1 111140Z 22010KT 12/03 A2974 RMK A01 T01170033  RH  056%=      5-min Rain = 0
KWA1 111141Z 22011KT 12/03 A2975 RMK A01 T01160032  RH  056%=      5-min Rain = 0
KWA1 111142Z 22011KT 12/03 A2975 RMK A01 T01170032  RH  056%=      5-min Rain = 0
KWA1 111143Z 22010KT 12/03 A2975 RMK A01 T01170032  RH  056%=      5-min Rain = 0
KWA1 111144Z 23010KT 12/03 A2975 RMK A01 T01180032  RH  056%=      5-min Rain = 0
KWA1 111145Z 22010KT 12/03 A2975 RMK A01 T01180032  RH  056%=      5-min Rain = 0
KWA1 111146Z 23010KT 12/03 A2975 RMK A01 T01180032  RH  055%=      5-min Rain = 0
KWA1 111147Z 23009KT 12/03 A2975 RMK A01 T01180032  RH  056%=      5-min Rain = 0
KWA1 111148Z 23009KT 12/03 A2975 RMK A01 T01180032  RH  056%=      5-min Rain = 0
KWA1 111149Z 23009KT 12/03 A2975 RMK A01 T01180032  RH  056%=      5-min Rain = 0
KWA1 111150Z 23009KT 12/03 A2975 RMK A01 T01180031  RH  055%=      5-min Rain = 0
KWA1 111151Z 23010KT 12/03 A2975 RMK A01 T01180031  RH  055%=      5-min Rain = 0
KWA1 111152Z 23009KT 12/03 A2975 RMK A01 T01170031  RH  056%=      5-min Rain = 0
KWA1 111153Z 23009KT 12/03 A2975 RMK A01 T01170031  RH  056%=      5-min Rain = 0
KWA1 111154Z 23010KT 12/03 A2975 RMK A01 T01170031  RH  056%=      5-min Rain = 0
KWA1 111155Z 23010KT 12/03 A2975 RMK A01 T01160031  RH  056%=      5-min Rain = 0
KWA1 111156Z 23010KT 12/03 A2975 RMK A01 T01160031  RH  056%=      5-min Rain = 0
KWA1 111157Z 23010KT 12/03 A2975 RMK A01 T01160031  RH  056%=      5-min Rain = 0
KWA1 111158Z 23010KT 12/03 A2975 RMK A01 T01150031  RH  056%=      5-min Rain = 0
KWA1 111159Z 23010KT 12/03 A2975 RMK A01 T01150032  RH  056%=      5-min Rain = 0
KWA1 111200Z 23010KT 12/03 A2975 RMK A01 T01150031  RH  056%=      5-min Rain = 0
KWA1 111201Z 23010KT 12/03 A2975 RMK A01 T01150031  RH  056%=      5-min Rain = 0
KWA1 111202Z 23011KT 12/03 A2975 RMK A01 T01150031  RH  056%=      5-min Rain = 0
KWA1 111203Z 23010KT 12/03 A2975 RMK A01 T01160031  RH  056%=      5-min Rain = 0
KWA1 111204Z 23010KT 12/03 A2975 RMK A01 T01160031  RH  056%=      5-min Rain = 0
KWA1 111205Z 23010KT 12/03 A2975 RMK A01 T01170030  RH  055%=      5-min Rain = 0
KWA1 111206Z 24010KT 12/03 A2975 RMK A01 T01170030  RH  055%=      5-min Rain = 0
KWA1 111207Z 23010KT 12/03 A2975 RMK A01 T01170030  RH  055%=      5-min Rain = 0
KWA1 111208Z 23009KT 12/03 A2975 RMK A01 T01160030  RH  055%=      5-min Rain = 0
KWA1 111209Z 23009KT 12/03 A2975 RMK A01 T01150030  RH  056%=      5-min Rain = 0
KWA1 111210Z 23009KT 11/03 A2975 RMK A01 T01140029  RH  056%=      5-min Rain = 0
KWA1 111211Z 23009KT 11/03 A2975 RMK A01 T01130029  RH  056%=      5-min Rain = 0
KWA1 111212Z 23009KT 11/03 A2975 RMK A01 T01120029  RH  057%=      5-min Rain = 0
KWA1 111213Z 23009KT 11/03 A2975 RMK A01 T01110029  RH  057%=      5-min Rain = 0
KWA1 111214Z 23009KT 11/03 A2975 RMK A01 T01100029  RH  057%=      5-min Rain = 0
KWA1 111215Z 23009KT 11/03 A2975 RMK A01 T01100028  RH  057%=      5-min Rain = 0
KWA1 111216Z 23010KT 11/03 A2975 RMK A01 T01090028  RH  057%=      5-min Rain = 0
KWA1 111217Z 23009KT 11/03 A2975 RMK A01 T01100028  RH  057%=      5-min Rain = 0
KWA1 111218Z 23009KT 11/03 A2975 RMK A01 T01100028  RH  057%=      5-min Rain = 0
KWA1 111219Z 23009KT 11/03 A2975 RMK A01 T01090028  RH  057%=      5-min Rain = 0
KWA1 111220Z 23009KT 11/03 A2975 RMK A01 T01080028  RH  058%=      5-min Rain = 0
KWA1 111221Z 23009KT 11/03 A2975 RMK A01 T01070028  RH  058%=      5-min Rain = 0
KWA1 111222Z 23009KT 11/03 A2975 RMK A01 T01060028  RH  058%=      5-min Rain = 0
KWA1 111223Z 23009KT 10/03 A2975 RMK A01 T01040027  RH  059%=      5-min Rain = 0
KWA1 111224Z 23009KT 10/03 A2975 RMK A01 T01040027  RH  059%=      5-min Rain = 0
KWA1 111225Z 23009KT 10/03 A2975 RMK A01 T01030027  RH  059%=      5-min Rain = 0
KWA1 111226Z 23009KT 10/03 A2975 RMK A01 T01030027  RH  059%=      5-min Rain = 0
KWA1 111227Z 23009KT 10/03 A2975 RMK A01 T01010027  RH  060%=      5-min Rain = 0
KWA1 111228Z 23009KT 10/03 A2975 RMK A01 T01010027  RH  060%=      5-min Rain = 0
KWA1 111229Z 23009KT 10/03 A2975 RMK A01 T01000027  RH  060%=      5-min Rain = 0
KWA1 111230Z 23009KT 10/03 A2975 RMK A01 T01000028  RH  060%=      5-min Rain = 0
KWA1 111231Z 23010KT 10/03 A2975 RMK A01 T01000027  RH  060%=      5-min Rain = 0
KWA1 111232Z 23010KT 10/03 A2975 RMK A01 T01000028  RH  061%=      5-min Rain = 0
KWA1 111233Z 23010KT 10/03 A2975 RMK A01 T01000027  RH  061%=      5-min Rain = 0
KWA1 111234Z 23010KT 10/03 A2975 RMK A01 T01000027  RH  061%=      5-min Rain = 0
KWA1 111235Z 23010KT 10/03 A2975 RMK A01 T01000027  RH  061%=      5-min Rain = 0
KWA1 111236Z 23010KT 10/03 A2975 RMK A01 T01000027  RH  060%=      5-min Rain = 0
KWA1 111237Z 24010KT 10/03 A2975 RMK A01 T01000027  RH  061%=      5-min Rain = 0
KWA1 111238Z 23010KT 10/03 A2976 RMK A01 T01000027  RH  061%=      5-min Rain = 0
KWA1 111239Z 23010KT 10/03 A2976 RMK A01 T01000027  RH  061%=      5-min Rain = 0
KWA1 111240Z 23010KT 10/03 A2976 RMK A01 T00990026  RH  061%=      5-min Rain = 0
KWA1 111241Z 23010KT 10/03 A2976 RMK A01 T00980027  RH  061%=      5-min Rain = 0
KWA1 111242Z 23010KT 10/03 A2976 RMK A01 T00980026  RH  061%=      5-min Rain = 0
KWA1 111243Z 23010KT 10/03 A2976 RMK A01 T00970027  RH  061%=      5-min Rain = 0
KWA1 111244Z 23009KT 10/03 A2976 RMK A01 T00970026  RH  062%=      5-min Rain = 0
KWA1 111245Z 23009KT 10/03 A2976 RMK A01 T00960026  RH  062%=      5-min Rain = 0
KWA1 111246Z 23010KT 10/03 A2976 RMK A01 T00960026  RH  062%=      5-min Rain = 0
KWA1 111247Z 23009KT 10/03 A2976 RMK A01 T00950026  RH  062%=      5-min Rain = 0
KWA1 111248Z 23010KT 10/03 A2976 RMK A01 T00950026  RH  062%=      5-min Rain = 0
KWA1 111249Z 23009KT 10/03 A2976 RMK A01 T00960027  RH  062%=      5-min Rain = 0
KWA1 111250Z 23010KT 10/03 A2976 RMK A01 T00960027  RH  062%=      5-min Rain = 0
KWA1 111251Z 22009KT 10/03 A2976 RMK A01 T00980028  RH  062%=      5-min Rain = 0
KWA1 111252Z 23009KT 10/03 A2976 RMK A01 T00990028  RH  061%=      5-min Rain = 0
KWA1 111253Z 23010KT 10/03 A2976 RMK A01 T00990028  RH  061%=      5-min Rain = 0
KWA1 111254Z 23009KT 10/03 A2976 RMK A01 T00990028  RH  061%=      5-min Rain = 0
KWA1 111255Z 22009KT 10/03 A2976 RMK A01 T00990028  RH  061%=      5-min Rain = 0
KWA1 111256Z 23009KT 10/03 A2976 RMK A01 T00980028  RH  062%=      5-min Rain = 0
KWA1 111257Z 22009KT 10/03 A2976 RMK A01 T00980028  RH  062%=      5-min Rain = 0
KWA1 111258Z 23009KT 10/03 A2976 RMK A01 T00970028  RH  062%=      5-min Rain = 0
KWA1 111259Z 23008KT 10/03 A2976 RMK A01 T00960028  RH  062%=      5-min Rain = 0
KWA1 111300Z 23009KT 10/03 A2976 RMK A01 T00950028  RH  063%=      5-min Rain = 0
KWA1 111301Z 23008KT 10/03 A2976 RMK A01 T00950028  RH  063%=      5-min Rain = 0
KWA1 111302Z 23008KT 09/03 A2976 RMK A01 T00940028  RH  063%=      5-min Rain = 0
KWA1 111303Z 23008KT 09/03 A2976 RMK A01 T00940027  RH  063%=      5-min Rain = 0
KWA1 111304Z 23008KT 09/03 A2976 RMK A01 T00930027  RH  063%=      5-min Rain = 0
KWA1 111305Z 22008KT 09/03 A2976 RMK A01 T00930027  RH  064%=      5-min Rain = 0
KWA1 111306Z 23008KT 09/03 A2976 RMK A01 T00920027  RH  064%=      5-min Rain = 0
KWA1 111307Z 22008KT 09/03 A2976 RMK A01 T00920027  RH  064%=      5-min Rain = 0
KWA1 111308Z 22008KT 09/03 A2976 RMK A01 T00920028  RH  064%=      5-min Rain = 0
KWA1 111309Z 22009KT 09/03 A2976 RMK A01 T00910027  RH  064%=      5-min Rain = 0
KWA1 111310Z 22009KT 09/03 A2977 RMK A01 T00900026  RH  064%=      5-min Rain = 0
KWA1 111311Z 22009KT 09/03 A2977 RMK A01 T00890026  RH  065%=      5-min Rain = 0
KWA1 111312Z 22009KT 09/03 A2977 RMK A01 T00890026  RH  065%=      5-min Rain = 0
KWA1 111313Z 22009KT 09/03 A2977 RMK A01 T00890026  RH  065%=      5-min Rain = 0
KWA1 111314Z 22009KT 09/03 A2977 RMK A01 T00890026  RH  065%=      5-min Rain = 0
KWA1 111315Z 22009KT 09/03 A2977 RMK A01 T00900026  RH  064%=      5-min Rain = 0
KWA1 111316Z 22009KT 09/03 A2977 RMK A01 T00900026  RH  064%=      5-min Rain = 0
KWA1 111317Z 22009KT 09/03 A2977 RMK A01 T00910027  RH  064%=      5-min Rain = 0
KWA1 111318Z 22009KT 09/03 A2977 RMK A01 T00910026  RH  064%=      5-min Rain = 0
KWA1 111319Z 22008KT 09/03 A2977 RMK A01 T00910026  RH  064%=      5-min Rain = 0
KWA1 111320Z 22008KT 09/03 A2977 RMK A01 T00910026  RH  064%=      5-min Rain = 0
KWA1 111321Z 22008KT 09/03 A2977 RMK A01 T00900026  RH  064%=      5-min Rain = 0
KWA1 111322Z 22008KT 09/03 A2977 RMK A01 T00910026  RH  064%=      5-min Rain = 0
KWA1 111323Z 22008KT 09/03 A2977 RMK A01 T00910026  RH  064%=      5-min Rain = 0
KWA1 111324Z 22008KT 09/03 A2977 RMK A01 T00900026  RH  064%=      5-min Rain = 0
KWA1 111325Z 23009KT 09/03 A2977 RMK A01 T00900026  RH  064%=      5-min Rain = 0
KWA1 111326Z 23009KT 09/03 A2978 RMK A01 T00900026  RH  064%=      5-min Rain = 0
KWA1 111327Z 23008KT 09/03 A2978 RMK A01 T00910026  RH  064%=      5-min Rain = 0
KWA1 111328Z 23008KT 09/03 A2978 RMK A01 T00910026  RH  064%=      5-min Rain = 0
KWA1 111329Z 23008KT 09/03 A2978 RMK A01 T00900026  RH  064%=      5-min Rain = 0
KWA1 111330Z 23008KT 09/03 A2978 RMK A01 T00900026  RH  064%=      5-min Rain = 0
KWA1 111331Z 23008KT 09/03 A2978 RMK A01 T00910026  RH  064%=      5-min Rain = 0
KWA1 111332Z 23009KT 09/03 A2978 RMK A01 T00910026  RH  064%=      5-min Rain = 0
KWA1 111333Z 22008KT 09/03 A2978 RMK A01 T00910026  RH  064%=      5-min Rain = 0
KWA1 111334Z 22008KT 09/03 A2978 RMK A01 T00920027  RH  064%=      5-min Rain = 0
KWA1 111335Z 22008KT 09/03 A2978 RMK A01 T00920027  RH  064%=      5-min Rain = 0
KWA1 111336Z 22008KT 09/03 A2978 RMK A01 T00920027  RH  064%=      5-min Rain = 0
KWA1 111337Z 22008KT 09/03 A2978 RMK A01 T00920027  RH  063%=      5-min Rain = 0
KWA1 111338Z 23007KT 09/03 A2978 RMK A01 T00920026  RH  063%=      5-min Rain = 0
KWA1 111339Z 23007KT 09/03 A2979 RMK A01 T00920026  RH  063%=      5-min Rain = 0
KWA1 111340Z 23007KT 09/03 A2979 RMK A01 T00910026  RH  064%=      5-min Rain = 0
KWA1 111341Z 23007KT 09/03 A2979 RMK A01 T00900026  RH  064%=      5-min Rain = 0
KWA1 111342Z 23006KT 09/03 A2979 RMK A01 T00900026  RH  064%=      5-min Rain = 0
KWA1 111343Z 23006KT 09/03 A2979 RMK A01 T00890026  RH  065%=      5-min Rain = 0
KWA1 111344Z 23006KT 09/03 A2979 RMK A01 T00890026  RH  065%=      5-min Rain = 0
KWA1 111345Z 24006KT 09/03 A2979 RMK A01 T00880026  RH  065%=      5-min Rain = 0
KWA1 111346Z 23007KT 09/03 A2979 RMK A01 T00870025  RH  065%=      5-min Rain = 0
KWA1 111347Z 23007KT 09/03 A2979 RMK A01 T00860025  RH  066%=      5-min Rain = 0
KWA1 111348Z 23009KT 09/03 A2979 RMK A01 T00860026  RH  066%=      5-min Rain = 0
KWA1 111349Z 23009KT 09/03 A2979 RMK A01 T00870026  RH  066%=      5-min Rain = 0
KWA1 111350Z 23009KT 09/03 A298 RMK A01 T00880027  RH  066%=      5-min Rain = 0
KWA1 111351Z 23009KT 09/03 A298 RMK A01 T00880027  RH  065%=      5-min Rain = 0
KWA1 111352Z 23009KT 09/03 A298 RMK A01 T00880027  RH  065%=      5-min Rain = 0
KWA1 111353Z 23009KT 09/03 A298 RMK A01 T00870027  RH  066%=      5-min Rain = 0
KWA1 111354Z 23009KT 09/03 A298 RMK A01 T00860027  RH  066%=      5-min Rain = 0
KWA1 111355Z 23008KT 09/03 A298 RMK A01 T00860026  RH  066%=      5-min Rain = 0
KWA1 111356Z 23008KT 09/03 A298 RMK A01 T00860026  RH  066%=      5-min Rain = 0
KWA1 111357Z 24009KT 09/03 A298 RMK A01 T00850026  RH  067%=      5-min Rain = 0
KWA1 111358Z 24008G13KT 09/03 A298 RMK A01 T00850026  RH  067%=      5-min Rain = 0
KWA1 111359Z 25011KT 09/03 A298 RMK A01 T00900028  RH  065%=      5-min Rain = 0
KWA1 111400Z 24009KT 10/03 A2981 RMK A01 T00980029  RH  062%=      5-min Rain = 0
KWA1 111401Z 24008KT 10/03 A2981 RMK A01 T00990028  RH  061%=      5-min Rain = 0
KWA1 111402Z 23008KT 10/03 A2981 RMK A01 T00970027  RH  062%=      5-min Rain = 0
KWA1 111403Z 23008KT 09/03 A2981 RMK A01 T00940027  RH  063%=      5-min Rain = 0
KWA1 111404Z 24007KT 09/03 A2981 RMK A01 T00910026  RH  064%=      5-min Rain = 0
KWA1 111405Z 24007KT 09/03 A2981 RMK A01 T00900026  RH  064%=      5-min Rain = 0
KWA1 111406Z 25006KT 09/03 A2981 RMK A01 T00890026  RH  065%=      5-min Rain = 0
KWA1 111407Z 25005KT 09/03 A2981 RMK A01 T00860026  RH  066%=      5-min Rain = 0
KWA1 111408Z 25005KT 08/03 A2981 RMK A01 T00840025  RH  066%=      5-min Rain = 0
KWA1 111409Z 25005KT 08/03 A2982 RMK A01 T00820025  RH  067%=      5-min Rain = 0
KWA1 111410Z 26005KT 08/03 A2982 RMK A01 T00810025  RH  068%=      5-min Rain = 0
KWA1 111411Z 26005KT 08/03 A2982 RMK A01 T00810025  RH  068%=      5-min Rain = 0
KWA1 111412Z 26005KT 08/03 A2982 RMK A01 T00810025  RH  068%=      5-min Rain = 0
KWA1 111413Z 26006KT 08/03 A2982 RMK A01 T00810025  RH  068%=      5-min Rain = 0
KWA1 111414Z 26006KT 08/03 A2982 RMK A01 T00810026  RH  068%=      5-min Rain = 0
KWA1 111415Z 26007KT 08/03 A2982 RMK A01 T00840028  RH  068%=      5-min Rain = 0
KWA1 111416Z 26007KT 09/03 A2982 RMK A01 T00860029  RH  067%=      5-min Rain = 0
KWA1 111417Z 26006KT 09/03 A2982 RMK A01 T00880029  RH  066%=      5-min Rain = 0
KWA1 111418Z 27006KT 09/03 A2982 RMK A01 T00900029  RH  066%=      5-min Rain = 0
KWA1 111419Z 27006KT 09/03 A2982 RMK A01 T00910030  RH  066%=      5-min Rain = 0
KWA1 111420Z 27006KT 09/03 A2982 RMK A01 T00910030  RH  065%=      5-min Rain = 0
KWA1 111421Z 27005KT 09/03 A2982 RMK A01 T00910030  RH  065%=      5-min Rain = 0
KWA1 111422Z 27006KT 09/03 A2982 RMK A01 T00910031  RH  066%=      5-min Rain = 0
KWA1 111423Z 27006KT 09/03 A2983 RMK A01 T00910031  RH  066%=      5-min Rain = 0
KWA1 111424Z 28006KT 09/03 A2983 RMK A01 T00910032  RH  066%=      5-min Rain = 0
KWA1 111425Z 27005KT 09/03 A2983 RMK A01 T00920031  RH  066%=      5-min Rain = 0
KWA1 111426Z 27005KT 09/03 A2983 RMK A01 T00930031  RH  066%=      5-min Rain = 0
KWA1 111427Z 28005KT 09/03 A2983 RMK A01 T00940032  RH  066%=      5-min Rain = 0
KWA1 111428Z 28005KT 09/03 A2983 RMK A01 T00940033  RH  065%=      5-min Rain = 0
KWA1 111429Z 27005KT 09/03 A2983 RMK A01 T00940033  RH  065%=      5-min Rain = 0
KWA1 111430Z 28005KT 10/03 A2983 RMK A01 T00950034  RH  065%=      5-min Rain = 0
KWA1 111431Z 29005KT 10/04 A2983 RMK A01 T00960035  RH  066%=      5-min Rain = 0
KWA1 111432Z 30006KT 10/04 A2984 RMK A01 T00970035  RH  065%=      5-min Rain = 0
KWA1 111433Z 32004KT 10/04 A2984 RMK A01 T00990036  RH  065%=      5-min Rain = 0
KWA1 111434Z 30004KT 10/04 A2984 RMK A01 T01000037  RH  065%=      5-min Rain = 0
KWA1 111435Z 30005KT 10/04 A2984 RMK A01 T00990036  RH  065%=      5-min Rain = 0
KWA1 111436Z 30007KT 10/03 A2984 RMK A01 T00990034  RH  064%=      5-min Rain = 0
KWA1 111437Z 30007KT 10/03 A2984 RMK A01 T01020034  RH  063%=      5-min Rain = 0
KWA1 111438Z 30007KT 11/03 A2984 RMK A01 T01070034  RH  061%=      5-min Rain = 0
KWA1 111439Z 31007KT 11/04 A2984 RMK A01 T01100035  RH  060%=      5-min Rain = 0
KWA1 111440Z 30007KT 11/03 A2984 RMK A01 T01130032  RH  057%=      5-min Rain = 0
KWA1 111441Z 31008KT 12/03 A2984 RMK A01 T01150033  RH  057%=      5-min Rain = 0
KWA1 111442Z 31010KT 12/03 A2984 RMK A01 T01170033  RH  056%=      5-min Rain = 0
KWA1 111443Z 31009KT 12/03 A2984 RMK A01 T01190032  RH  055%=      5-min Rain = 0
KWA1 111444Z 31009KT 12/03 A2984 RMK A01 T01200034  RH  055%=      5-min Rain = 0
KWA1 111445Z 31009KT 12/03 A2984 RMK A01 T01210033  RH  055%=      5-min Rain = 0
KWA1 111446Z 30009KT 12/03 A2985 RMK A01 T01220034  RH  055%=      5-min Rain = 0
KWA1 111447Z 31010KT 12/04 A2985 RMK A01 T01230035  RH  055%=      5-min Rain = 0
KWA1 111448Z 31009KT 13/03 A2985 RMK A01 T01250034  RH  054%=      5-min Rain = 0
KWA1 111449Z 31009KT 13/04 A2985 RMK A01 T01260036  RH  055%=      5-min Rain = 0
KWA1 111450Z 32010KT 13/04 A2985 RMK A01 T01270038  RH  055%=      5-min Rain = 0
KWA1 111451Z 32014KT 13/04 A2985 RMK A01 T01290038  RH  054%=      5-min Rain = 0
KWA1 111452Z 32015KT 13/04 A2985 RMK A01 T01330037  RH  052%=      5-min Rain = 0
KWA1 111453Z 32015KT 14/04 A2985 RMK A01 T01360039  RH  052%=      5-min Rain = 0
KWA1 111454Z 32016KT 14/04 A2985 RMK A01 T01380036  RH  050%=      5-min Rain = 0
KWA1 111455Z 32013KT 14/04 A2985 RMK A01 T01390038  RH  050%=      5-min Rain = 0
KWA1 111456Z 32017KT 14/04 A2985 RMK A01 T01390037  RH  050%=      5-min Rain = 0
KWA1 111457Z 32015KT 14/04 A2985 RMK A01 T01400035  RH  049%=      5-min Rain = 0
KWA1 111458Z 32016KT 14/04 A2985 RMK A01 T01400036  RH  049%=      5-min Rain = 0
KWA1 111459Z 32014KT 14/04 A2986 RMK A01 T01400035  RH  049%=      5-min Rain = 0
KWA1 111500Z 32014KT 14/04 A2986 RMK A01 T01400036  RH  049%=      5-min Rain = 0
KWA1 111501Z 33012KT 14/04 A2986 RMK A01 T01400037  RH  050%=      5-min Rain = 0
KWA1 111502Z 33013KT 14/04 A2986 RMK A01 T01400037  RH  050%=      5-min Rain = 0
KWA1 111503Z 33013KT 14/04 A2986 RMK A01 T01400038  RH  050%=      5-min Rain = 0
KWA1 111504Z 33018KT 14/04 A2986 RMK A01 T01390035  RH  050%=      5-min Rain = 0
KWA1 111505Z 33018KT 14/03 A2986 RMK A01 T01370033  RH  049%=      5-min Rain = 0
KWA1 111506Z 33016KT 14/03 A2986 RMK A01 T01360034  RH  050%=      5-min Rain = 0
KWA1 111507Z 33016KT 14/04 A2986 RMK A01 T01360036  RH  051%=      5-min Rain = 0
KWA1 111508Z 33016KT 14/04 A2986 RMK A01 T01350035  RH  051%=      5-min Rain = 0
KWA1 111509Z 33015KT 14/04 A2986 RMK A01 T01350036  RH  051%=      5-min Rain = 0
KWA1 111510Z 33015KT 13/04 A2986 RMK A01 T01340035  RH  051%=      5-min Rain = 0
KWA1 111511Z 33016KT 13/04 A2986 RMK A01 T01340036  RH  051%=      5-min Rain = 0
KWA1 111512Z 33018KT 13/03 A2986 RMK A01 T01340034  RH  051%=      5-min Rain = 0
KWA1 111513Z 34015KT 13/03 A2987 RMK A01 T01340034  RH  051%=      5-min Rain = 0
KWA1 111514Z 34014KT 13/04 A2987 RMK A01 T01330035  RH  051%=      5-min Rain = 0
KWA1 111515Z 34015KT 13/04 A2987 RMK A01 T01330037  RH  052%=      5-min Rain = 0
KWA1 111516Z 34019G24KT 13/04 A2987 RMK A01 T01330036  RH  052%=      5-min Rain = 0
KWA1 111517Z 34019G24KT 13/04 A2987 RMK A01 T01320036  RH  052%=      5-min Rain = 0
KWA1 111518Z 34019KT 13/03 A2988 RMK A01 T01310034  RH  052%=      5-min Rain = 0
KWA1 111519Z 34020KT 13/03 A2988 RMK A01 T01300034  RH  052%=      5-min Rain = 0
KWA1 111520Z 34019KT 13/03 A2988 RMK A01 T01290034  RH  052%=      5-min Rain = 0
KWA1 111521Z 34017KT 13/03 A2988 RMK A01 T01280034  RH  053%=      5-min Rain = 0
KWA1 111522Z 34020KT 13/03 A2988 RMK A01 T01270034  RH  053%=      5-min Rain = 0
KWA1 111523Z 35018KT 13/03 A2988 RMK A01 T01270034  RH  053%=      5-min Rain = 0
KWA1 111524Z 34019KT 13/04 A2988 RMK A01 T01260035  RH  054%=      5-min Rain = 0
KWA1 111525Z 34019KT 13/04 A2988 RMK A01 T01260035  RH  054%=      5-min Rain = 0
KWA1 111526Z 34021KT 13/03 A2989 RMK A01 T01260034  RH  053%=      5-min Rain = 0
KWA1 111527Z 34022G27KT 13/03 A2989 RMK A01 T01270034  RH  053%=      5-min Rain = 0
KWA1 111528Z 34022KT 13/03 A2989 RMK A01 T01260033  RH  053%=      5-min Rain = 0
KWA1 111529Z 34022KT 13/03 A2989 RMK A01 T01250033  RH  053%=      5-min Rain = 0
KWA1 111530Z 33021KT 12/03 A2989 RMK A01 T01240033  RH  054%=      5-min Rain = 0
KWA1 111531Z 34022KT 12/03 A2989 RMK A01 T01240033  RH  054%=      5-min Rain = 0
KWA1 111532Z 33022G28KT 12/03 A2989 RMK A01 T01240034  RH  054%=      5-min Rain = 0
KWA1 111533Z 33022G27KT 12/03 A2989 RMK A01 T01240033  RH  054%=      5-min Rain = 0
KWA1 111534Z 33022KT 13/04 A2989 RMK A01 T01250035  RH  054%=      5-min Rain = 0
KWA1 111535Z 34019G24KT 13/04 A299 RMK A01 T01270036  RH  054%=      5-min Rain = 0
KWA1 111536Z 34018G23KT 13/04 A299 RMK A01 T01290036  RH  053%=      5-min Rain = 0
KWA1 111537Z 34020G26KT 13/04 A299 RMK A01 T01300038  RH  053%=      5-min Rain = 0
KWA1 111538Z 34021KT 13/04 A299 RMK A01 T01310038  RH  053%=      5-min Rain = 0
KWA1 111539Z 34023KT 13/04 A299 RMK A01 T01310036  RH  052%=      5-min Rain = 0
KWA1 111540Z 34022G29KT 13/04 A299 RMK A01 T01310037  RH  053%=      5-min Rain = 0
KWA1 111541Z 34022KT 13/04 A2991 RMK A01 T01310036  RH  053%=      5-min Rain = 0
KWA1 111542Z 35022KT 13/04 A2991 RMK A01 T01300036  RH  053%=      5-min Rain = 0
KWA1 111543Z 35019KT 13/04 A2991 RMK A01 T01280036  RH  054%=      5-min Rain = 0
KWA1 111544Z 34020KT 13/04 A2991 RMK A01 T01280036  RH  054%=      5-min Rain = 0
KWA1 111545Z 33023KT 13/04 A2991 RMK A01 T01290035  RH  053%=      5-min Rain = 0
KWA1 111546Z 34025G30KT 13/03 A2991 RMK A01 T01280034  RH  053%=      5-min Rain = 0
KWA1 111547Z 34024KT 13/04 A2992 RMK A01 T01270035  RH  053%=      5-min Rain = 0
KWA1 111548Z 34022KT 13/03 A2992 RMK A01 T01260034  RH  053%=      5-min Rain = 0
KWA1 111549Z 34021KT 13/03 A2992 RMK A01 T01250034  RH  054%=      5-min Rain = 0
KWA1 111550Z 34021KT 13/04 A2992 RMK A01 T01250035  RH  054%=      5-min Rain = 0
KWA1 111551Z 34023KT 12/03 A2992 RMK A01 T01240034  RH  054%=      5-min Rain = 0
KWA1 111552Z 34023KT 12/03 A2992 RMK A01 T01230032  RH  054%=      5-min Rain = 0
KWA1 111553Z 33022KT 12/03 A2992 RMK A01 T01220032  RH  054%=      5-min Rain = 0
KWA1 111554Z 33022KT 12/03 A2992 RMK A01 T01220031  RH  054%=      5-min Rain = 0
KWA1 111555Z 33024KT 12/03 A2992 RMK A01 T01210030  RH  054%=      5-min Rain = 0
KWA1 111556Z 33024KT 12/03 A2993 RMK A01 T01190027  RH  054%=      5-min Rain = 0
KWA1 111557Z 33021KT 12/03 A2993 RMK A01 T01170027  RH  054%=      5-min Rain = 0
KWA1 111558Z 33022KT 12/03 A2993 RMK A01 T01160027  RH  054%=      5-min Rain = 0
KWA1 111559Z 33023G28KT 12/03 A2993 RMK A01 T01150025  RH  054%=      5-min Rain = 0
KWA1 111600Z 33026KT 11/03 A2993 RMK A01 T01130025  RH  054%=      5-min Rain = 0
KWA1 111601Z 33021KT 11/03 A2994 RMK A01 T01120025  RH  055%=      5-min Rain = 0
KWA1 111602Z 33020KT 11/03 A2994 RMK A01 T01120026  RH  055%=      5-min Rain = 0
KWA1 111603Z 33022KT 11/03 A2994 RMK A01 T01120027  RH  056%=      5-min Rain = 0
KWA1 111604Z 33022KT 11/03 A2994 RMK A01 T01120026  RH  055%=      5-min Rain = 0
KWA1 111605Z 33024KT 11/03 A2994 RMK A01 T01120027  RH  056%=      5-min Rain = 0
KWA1 111606Z 34022KT 11/03 A2995 RMK A01 T01120026  RH  056%=      5-min Rain = 0
KWA1 111607Z 34021KT 11/03 A2995 RMK A01 T01130028  RH  056%=      5-min Rain = 0
KWA1 111608Z 33019KT 12/03 A2995 RMK A01 T01150028  RH  055%=      5-min Rain = 0
KWA1 111609Z 34023KT 12/03 A2995 RMK A01 T01160028  RH  055%=      5-min Rain = 0
KWA1 111610Z 34021KT 12/03 A2995 RMK A01 T01160028  RH  055%=      5-min Rain = 0
KWA1 111611Z 34019KT 12/03 A2995 RMK A01 T01170029  RH  055%=      5-min Rain = 0
KWA1 111612Z 33025KT 12/03 A2995 RMK A01 T01180027  RH  054%=      5-min Rain = 0
KWA1 111613Z 33022KT 12/02 A2995 RMK A01 T01150023  RH  053%=      5-min Rain = 0
KWA1 111614Z 34023KT 11/02 A2995 RMK A01 T01130023  RH  054%=      5-min Rain = 0
KWA1 111615Z 34024KT 11/02 A2995 RMK A01 T01110022  RH  054%=      5-min Rain = 0
KWA1 111616Z 34023KT 11/02 A2996 RMK A01 T01100021  RH  054%=      5-min Rain = 0
KWA1 111617Z 33024KT 11/02 A2996 RMK A01 T01090021  RH  054%=      5-min Rain = 0
KWA1 111618Z 33024KT 11/02 A2996 RMK A01 T01070020  RH  055%=      5-min Rain = 0
KWA1 111619Z 33025KT 11/02 A2996 RMK A01 T01060019  RH  055%=      5-min Rain = 0
KWA1 111620Z 33026KT 11/02 A2996 RMK A01 T01050020  RH  056%=      5-min Rain = 0
KWA1 111621Z 33024KT 10/02 A2996 RMK A01 T01030020  RH  056%=      5-min Rain = 0
KWA1 111622Z 33026KT 10/02 A2996 RMK A01 T01020018  RH  056%=      5-min Rain = 0
KWA1 111623Z 33025KT 10/02 A2997 RMK A01 T01010018  RH  056%=      5-min Rain = 0
KWA1 111624Z 33025KT 10/02 A2997 RMK A01 T01010019  RH  057%=      5-min Rain = 0
KWA1 111625Z 34023KT 10/02 A2997 RMK A01 T01000017  RH  056%=      5-min Rain = 0
KWA1 111626Z 33023KT 10/02 A2997 RMK A01 T01000017  RH  056%=      5-min Rain = 0
KWA1 111627Z 33022KT 10/02 A2997 RMK A01 T00990016  RH  056%=      5-min Rain = 0
KWA1 111628Z 34023KT 10/02 A2998 RMK A01 T00990016  RH  057%=      5-min Rain = 0
KWA1 111629Z 34025KT 10/01 A2998 RMK A01 T00980014  RH  056%=      5-min Rain = 0
KWA1 111630Z 34022KT 10/01 A2998 RMK A01 T00960013  RH  056%=      5-min Rain = 0
KWA1 111631Z 34022KT 10/01 A2998 RMK A01 T00960012  RH  056%=      5-min Rain = 0
KWA1 111632Z 35023G28KT 10/01 A2998 RMK A01 T00950012  RH  056%=      5-min Rain = 0
KWA1 111633Z 35023KT 10/01 A2998 RMK A01 T00950012  RH  056%=      5-min Rain = 0
KWA1 111634Z 34024KT 10/01 A2998 RMK A01 T00950012  RH  056%=      5-min Rain = 0
KWA1 111635Z 34019KT 10/01 A2999 RMK A01 T00960013  RH  056%=      5-min Rain = 0
KWA1 111636Z 33019KT 10/01 A2999 RMK A01 T00990013  RH  055%=      5-min Rain = 0
KWA1 111637Z 33021KT 10/01 A2999 RMK A01 T00990011  RH  054%=      5-min Rain = 0
KWA1 111638Z 34023G28KT 10/01 A2999 RMK A01 T00980009  RH  054%=      5-min Rain = 0
KWA1 111639Z 34025G30KT 10/01 A2999 RMK A01 T00970007  RH  054%=      5-min Rain = 0
KWA1 111640Z 34025G30KT 10/01 A2999 RMK A01 T00950006  RH  054%=      5-min Rain = 0
KWA1 111641Z 33027KT 09/01 A2999 RMK A01 T00940005  RH  054%=      5-min Rain = 0
KWA1 111642Z 34026KT 09/00 A2999 RMK A01 T00920004  RH  054%=      5-min Rain = 0
KWA1 111643Z 33026KT 09/00 A30 RMK A01 T00920004  RH  054%=      5-min Rain = 0
KWA1 111644Z 33024KT 09/00 A30 RMK A01 T00910003  RH  054%=      5-min Rain = 0
KWA1 111645Z 33024KT 09/00 A30 RMK A01 T00900003  RH  054%=      5-min Rain = 0
KWA1 111646Z 33024KT 09/00 A30 RMK A01 T00900003  RH  054%=      5-min Rain = 0
KWA1 111647Z 33021KT 09/00 A30 RMK A01 T00900003  RH  054%=      5-min Rain = 0
KWA1 111648Z 33020KT 09/00 A30 RMK A01 T00900004  RH  055%=      5-min Rain = 0
KWA1 111649Z 34021KT 09/01 A30 RMK A01 T00900005  RH  055%=      5-min Rain = 0
KWA1 111650Z 33023KT 09/01 A30 RMK A01 T00890006  RH  056%=      5-min Rain = 0
KWA1 111651Z 33024KT 09/01 A3001 RMK A01 T00880005  RH  056%=      5-min Rain = 0
KWA1 111652Z 34023KT 09/00 A3001 RMK A01 T00860004  RH  056%=      5-min Rain = 0
KWA1 111653Z 34022KT 09/00 A3001 RMK A01 T00860004  RH  056%=      5-min Rain = 0
KWA1 111654Z 33022KT 09/00 A3001 RMK A01 T00850004  RH  057%=      5-min Rain = 0
KWA1 111655Z 33024KT 09/00 A3001 RMK A01 T00850003  RH  057%=      5-min Rain = 0
KWA1 111656Z 33021KT 09/00 A3001 RMK A01 T00850003  RH  056%=      5-min Rain = 0
KWA1 111657Z 34021G27KT 08/00 A3002 RMK A01 T00840004  RH  057%=      5-min Rain = 0
KWA1 111658Z 34021KT 08/00 A3002 RMK A01 T00840003  RH  057%=      5-min Rain = 0
KWA1 111659Z 34019KT 08/00 A3002 RMK A01 T00830004  RH  058%=      5-min Rain = 0
KWA1 111700Z 33020KT 08/01 A3002 RMK A01 T00830005  RH  058%=      5-min Rain = 0
KWA1 111701Z 34025KT 08/01 A3002 RMK A01 T00820006  RH  058%=      5-min Rain = 0
KWA1 111702Z 34023KT 08/01 A3002 RMK A01 T00790008  RH  061%=      5-min Rain = 0
KWA1 111703Z 35024KT 08/01 A3003 RMK A01 T00770009  RH  062%=      5-min Rain = 0
KWA1 111704Z 35025KT 07/01 A3003 RMK A01 T00740011  RH  064%=      5-min Rain = 0
KWA1 111705Z 35023KT 07/01 A3003 RMK A01 T00720011  RH  065%=      5-min Rain = 0
KWA1 111706Z 35023KT 07/01 A3003 RMK A01 T00710013  RH  067%=      5-min Rain = 0
KWA1 111707Z 35023KT 07/01 A3003 RMK A01 T00700014  RH  067%=      5-min Rain = 0
KWA1 111708Z 34020KT 07/02 A3003 RMK A01 T00690015  RH  068%=      5-min Rain = 0
KWA1 111709Z 33021G28KT 07/02 A3003 RMK A01 T00690019  RH  071%=      5-min Rain = 0
KWA1 111710Z 33025KT 07/02 A3003 RMK A01 T00680016  RH  070%=      5-min Rain = 0
KWA1 111711Z 33022G27KT 07/02 A3004 RMK A01 T00660017  RH  071%=      5-min Rain = 0
KWA1 111712Z 33022G27KT 07/02 A3004 RMK A01 T00660021  RH  073%=      5-min Rain = 0
KWA1 111713Z 33024KT 07/02 A3004 RMK A01 T00650018  RH  072%=      5-min Rain = 0
KWA1 111714Z 33023KT 07/02 A3004 RMK A01 T00650018  RH  072%=      5-min Rain = 0
KWA1 111715Z 33026KT 06/02 A3004 RMK A01 T00640017  RH  072%=      5-min Rain = 0
KWA1 111716Z 33024KT 06/01 A3004 RMK A01 T00630013  RH  071%=      5-min Rain = 0
KWA1 111717Z 34021KT 06/02 A3004 RMK A01 T00620015  RH  072%=      5-min Rain = 0
KWA1 111718Z 34025G32KT 06/02 A3004 RMK A01 T00620016  RH  072%=      5-min Rain = 0
KWA1 111719Z 34027KT 06/01 A3004 RMK A01 T00610010  RH  070%=      5-min Rain = 0
KWA1 111720Z 33025KT 06/01 A3004 RMK A01 T00600010  RH  071%=      5-min Rain = 0
KWA1 111721Z 34025G30KT 06/01 A3005 RMK A01 T00590011  RH  071%=      5-min Rain = 0
KWA1 111722Z 34024KT 06/01 A3005 RMK A01 T00580012  RH  072%=      5-min Rain = 0
KWA1 111723Z 34023KT 06/01 A3005 RMK A01 T00570011  RH  072%=      5-min Rain = 0
KWA1 111724Z 33022G27KT 06/01 A3005 RMK A01 T00570012  RH  073%=      5-min Rain = 0
KWA1 111725Z 34025KT 06/01 A3005 RMK A01 T00570010  RH  072%=      5-min Rain = 0
KWA1 111726Z 34023KT 06/01 A3005 RMK A01 T00560009  RH  072%=      5-min Rain = 0
KWA1 111727Z 34020KT 06/01 A3005 RMK A01 T00560010  RH  072%=      5-min Rain = 0
KWA1 111728Z 33021KT 06/01 A3005 RMK A01 T00550010  RH  073%=      5-min Rain = 0
KWA1 111729Z 34018KT 06/01 A3005 RMK A01 T00550008  RH  072%=      5-min Rain = 0
KWA1 111730Z 34019KT 06/01 A3005 RMK A01 T00550011  RH  073%=      5-min Rain = 0
KWA1 111731Z 34022G27KT 05/01 A3005 RMK A01 T00540007  RH  072%=      5-min Rain = 0
KWA1 111732Z 34024KT 05/00 A3005 RMK A01 T00540004  RH  070%=      5-min Rain = 0
KWA1 111733Z 34023KT 05/00 A3006 RMK A01 T00540003  RH  070%=      5-min Rain = 0
KWA1 111734Z 34019KT 05/00 A3006 RMK A01 T00540002  RH  069%=      5-min Rain = 0
KWA1 111735Z 35021KT 05/00 A3006 RMK A01 T00540002  RH  069%=      5-min Rain = 0
KWA1 111736Z 35018G23KT 05/00 A3006 RMK A01 T00540001  RH  069%=      5-min Rain = 0
KWA1 111737Z 34017KT 05/00 A3006 RMK A01 T00540003  RH  070%=      5-min Rain = 0
KWA1 111738Z 34019G24KT 05/00 A3006 RMK A01 T00540000  RH  068%=      5-min Rain = 0
KWA1 111739Z 34022KT 05/M00 A3006 RMK A01 T00541001  RH  067%=      5-min Rain = 0
KWA1 111740Z 35022KT 05/M00 A3006 RMK A01 T00541002  RH  067%=      5-min Rain = 0
KWA1 111741Z 35018G23KT 05/M00 A3006 RMK A01 T00541003  RH  067%=      5-min Rain = 0
KWA1 111742Z 35019KT 06/M00 A3006 RMK A01 T00551001  RH  067%=      5-min Rain = 0
KWA1 111743Z 35019G24KT 06/M00 A3006 RMK A01 T00551003  RH  066%=      5-min Rain = 0
KWA1 111744Z 36018KT 06/M00 A3006 RMK A01 T00561001  RH  067%=      5-min Rain = 0
KWA1 111745Z 36018KT 06/M00 A3006 RMK A01 T00561001  RH  066%=      5-min Rain = 0
KWA1 111746Z 35021KT 06/M00 A3006 RMK A01 T00571003  RH  065%=      5-min Rain = 0
KWA1 111747Z 36020KT 06/M00 A3006 RMK A01 T00581002  RH  065%=      5-min Rain = 0
KWA1 111748Z 35020KT 06/M00 A3006 RMK A01 T00591003  RH  065%=      5-min Rain = 0
KWA1 111749Z 35019KT 06/M00 A3006 RMK A01 T00591004  RH  064%=      5-min Rain = 0
KWA1 111750Z 35017G22KT 06/M01 A3006 RMK A01 T00601006  RH  063%=      5-min Rain = 0
KWA1 111751Z 35021KT 06/M01 A3006 RMK A01 T00601006  RH  063%=      5-min Rain = 0
KWA1 111752Z 35019KT 06/M01 A3006 RMK A01 T00601008  RH  061%=      5-min Rain = 0
KWA1 111753Z 35019KT 06/M01 A3006 RMK A01 T00611006  RH  062%=      5-min Rain = 0
KWA1 111754Z 35019KT 06/M01 A3007 RMK A01 T00611006  RH  062%=      5-min Rain = 0
KWA1 111755Z 35021KT 06/M01 A3006 RMK A01 T00621007  RH  061%=      5-min Rain = 0
KWA1 111756Z 36019G24KT 06/M01 A3007 RMK A01 T00621007  RH  061%=      5-min Rain = 0
KWA1 111757Z 36018KT 06/M01 A3007 RMK A01 T00631007  RH  061%=      5-min Rain = 0
KWA1 111758Z 35016KT 06/M01 A3007 RMK A01 T00641005  RH  061%=      5-min Rain = 0
KWA1 111759Z 34016KT 07/M00 A3006 RMK A01 T00651002  RH  062%=      5-min Rain = 0
KWA1 111800Z 34017KT 07/M00 A3006 RMK A01 T00671004  RH  061%=      5-min Rain = 0
KWA1 111801Z 35015KT 07/M01 A3006 RMK A01 T00671005  RH  060%=      5-min Rain = 0
KWA1 111802Z 34015KT 07/M01 A3006 RMK A01 T00671005  RH  060%=      5-min Rain = 0
KWA1 111803Z 34017KT 07/M01 A3006 RMK A01 T00671006  RH  060%=      5-min Rain = 0
KWA1 111804Z 34016KT 07/M01 A3006 RMK A01 T00671006  RH  060%=      5-min Rain = 0
KWA1 111805Z 34013KT 07/M01 A3006 RMK A01 T00681006  RH  059%=      5-min Rain = 0
KWA1 111806Z 35011KT 07/M00 A3006 RMK A01 T00691003  RH  060%=      5-min Rain = 0
KWA1 111807Z 35013KT 07/00 A3006 RMK A01 T007100-0  RH  060%=      5-min Rain = 0
KWA1 111808Z 34012KT 07/M00 A3006 RMK A01 T00721003  RH  059%=      5-min Rain = 0
KWA1 111809Z 34012KT 07/M00 A3006 RMK A01 T00721004  RH  059%=      5-min Rain = 0
KWA1 111810Z 35012KT 07/M00 A3006 RMK A01 T00721002  RH  059%=      5-min Rain = 0
KWA1 111811Z 35012KT 07/M00 A3006 RMK A01 T00741004  RH  058%=      5-min Rain = 0
KWA1 111812Z 34013G18KT 07/M00 A3006 RMK A01 T00741004  RH  058%=      5-min Rain = 0
KWA1 111813Z 33015KT 08/M00 A3006 RMK A01 T00751002  RH  058%=      5-min Rain = 0
KWA1 111814Z 34014KT 08/00 A3006 RMK A01 T007700-0  RH  058%=      5-min Rain = 0
KWA1 111815Z 34016KT 08/M00 A3006 RMK A01 T00791002  RH  057%=      5-min Rain = 0
KWA1 111816Z 34016KT 08/M00 A3006 RMK A01 T00791003  RH  056%=      5-min Rain = 0
KWA1 111817Z 34013KT 08/M00 A3006 RMK A01 T00791001  RH  057%=      5-min Rain = 0
KWA1 111818Z 34016KT 08/M00 A3006 RMK A01 T00811002  RH  056%=      5-min Rain = 0
KWA1 111819Z 35017KT 08/M00 A3005 RMK A01 T00811004  RH  055%=      5-min Rain = 0
KWA1 111820Z 35018KT 08/M00 A3006 RMK A01 T00811001  RH  056%=      5-min Rain = 0
KWA1 111821Z 34015KT 08/M00 A3005 RMK A01 T00831001  RH  056%=      5-min Rain = 0
KWA1 111822Z 34014KT 09/00 A3005 RMK A01 T00850002  RH  056%=      5-min Rain = 0
KWA1 111823Z 34016KT 09/M00 A3005 RMK A01 T00861001  RH  054%=      5-min Rain = 0
KWA1 111824Z 33017KT 09/M00 A3005 RMK A01 T00861002  RH  054%=      5-min Rain = 0
KWA1 111825Z 34014KT 09/00 A3005 RMK A01 T00870001  RH  055%=      5-min Rain = 0
KWA1 111826Z 34013KT 09/00 A3005 RMK A01 T00910003  RH  054%=      5-min Rain = 0
KWA1 111827Z 34013KT 09/01 A3005 RMK A01 T00930006  RH  054%=      5-min Rain = 0
KWA1 111828Z 33014KT 10/00 A3005 RMK A01 T00950002  RH  052%=      5-min Rain = 0
KWA1 111829Z 34019G25KT 10/00 A3005 RMK A01 T00950001  RH  052%=      5-min Rain = 0
KWA1 111830Z 34021KT 10/00 A3005 RMK A01 T00960001  RH  052%=      5-min Rain = 0
KWA1 111831Z 33020KT 10/00 A3005 RMK A01 T009700-0  RH  051%=      5-min Rain = 0
KWA1 111832Z 32018KT 10/M00 A3005 RMK A01 T00981003  RH  049%=      5-min Rain = 0
KWA1 111833Z 33017KT 10/00 A3005 RMK A01 T009800-0  RH  050%=      5-min Rain = 0
KWA1 111834Z 33018KT 10/M00 A3005 RMK A01 T01011001  RH  049%=      5-min Rain = 0
KWA1 111835Z 33018G23KT 10/M00 A3005 RMK A01 T01011003  RH  048%=      5-min Rain = 0
KWA1 111836Z 33020KT 10/M01 A3005 RMK A01 T01001005  RH  048%=      5-min Rain = 0
KWA1 111837Z 33021KT 10/M01 A3005 RMK A01 T00981008  RH  048%=      5-min Rain = 0
KWA1 111838Z 32024KT 10/M01 A3005 RMK A01 T01001006  RH  048%=      5-min Rain = 0
KWA1 111839Z 31019KT 10/M01 A3005 RMK A01 T01001006  RH  048%=      5-min Rain = 0
KWA1 111840Z 32026KT 10/M00 A3005 RMK A01 T01031002  RH  048%=      5-min Rain = 0
KWA1 111841Z 32024KT 10/M01 A3005 RMK A01 T01031005  RH  047%=      5-min Rain = 0
KWA1 111842Z 33023KT 11/M00 A3005 RMK A01 T01061002  RH  047%=      5-min Rain = 0
KWA1 111843Z 32025G30KT 11/M00 A3005 RMK A01 T01061003  RH  047%=      5-min Rain = 0
KWA1 111844Z 32024KT 10/M01 A3005 RMK A01 T01041007  RH  046%=      5-min Rain = 0
KWA1 111845Z 33023KT 10/M01 A3005 RMK A01 T01021007  RH  047%=      5-min Rain = 0
KWA1 111846Z 34024KT 10/M01 A3005 RMK A01 T01031006  RH  047%=      5-min Rain = 0
KWA1 111847Z 33024KT 10/M01 A3006 RMK A01 T01011009  RH  047%=      5-min Rain = 0
KWA1 111848Z 33025KT 10/M01 A3006 RMK A01 T00981011  RH  047%=      5-min Rain = 0
KWA1 111849Z 33026G31KT 10/M01 A3005 RMK A01 T00961012  RH  047%=      5-min Rain = 0
KWA1 111850Z 33026KT 10/M01 A3006 RMK A01 T00951012  RH  047%=      5-min Rain = 0
KWA1 111851Z 33028KT 09/M01 A3006 RMK A01 T00931014  RH  047%=      5-min Rain = 0
KWA1 111852Z 33025KT 09/M02 A3006 RMK A01 T00901015  RH  048%=      5-min Rain = 0
KWA1 111853Z 33026G31KT 09/M01 A3006 RMK A01 T00911013  RH  048%=      5-min Rain = 0
KWA1 111854Z 34028KT 09/M01 A3006 RMK A01 T00911014  RH  048%=      5-min Rain = 0
KWA1 111855Z 34027KT 09/M01 A3006 RMK A01 T00911012  RH  048%=      5-min Rain = 0
KWA1 111856Z 34028G34KT 09/M01 A3006 RMK A01 T00931011  RH  048%=      5-min Rain = 0
KWA1 111857Z 34025G30KT 09/M01 A3006 RMK A01 T00921014  RH  048%=      5-min Rain = 0
KWA1 111858Z 34026G32KT 09/M01 A3006 RMK A01 T00921013  RH  048%=      5-min Rain = 0
KWA1 111859Z 34026G31KT 09/M01 A3006 RMK A01 T00931012  RH  048%=      5-min Rain = 0
KWA1 111900Z 35023KT 09/M01 A3007 RMK A01 T00931012  RH  048%=      5-min Rain = 0
KWA1 111901Z 35022G27KT 09/M01 A3006 RMK A01 T00921012  RH  048%=      5-min Rain = 0
KWA1 111902Z 35027G32KT 09/M01 A3007 RMK A01 T00931012  RH  048%=      5-min Rain = 0
KWA1 111903Z 34029G34KT 09/M01 A3007 RMK A01 T00921013  RH  048%=      5-min Rain = 0
KWA1 111904Z 34031G36KT 09/M02 A3006 RMK A01 T00901015  RH  048%=      5-min Rain = 0
KWA1 111905Z 35027G32KT 09/M02 A3007 RMK A01 T00891016  RH  048%=      5-min Rain = 0
KWA1 111906Z 34024G29KT 09/M02 A3007 RMK A01 T00871016  RH  048%=      5-min Rain = 0
KWA1 111907Z 34026KT 09/M02 A3007 RMK A01 T00871015  RH  049%=      5-min Rain = 0
KWA1 111908Z 34023G28KT 09/M01 A3007 RMK A01 T00911011  RH  049%=      5-min Rain = 0
KWA1 111909Z 34023KT 09/M01 A3007 RMK A01 T00941012  RH  048%=      5-min Rain = 0
KWA1 111910Z 34024KT 10/M01 A3007 RMK A01 T00951013  RH  047%=      5-min Rain = 0
KWA1 111911Z 34023G28KT 10/M01 A3007 RMK A01 T00961012  RH  047%=      5-min Rain = 0
KWA1 111912Z 35024G29KT 10/M01 A3007 RMK A01 T00981012  RH  046%=      5-min Rain = 0
KWA1 111913Z 35025KT 10/M02 A3007 RMK A01 T00951015  RH  046%=      5-min Rain = 0
KWA1 111914Z 35021KT 09/M01 A3008 RMK A01 T00931014  RH  047%=      5-min Rain = 0
KWA1 111915Z 35018KT 09/M01 A3008 RMK A01 T00941014  RH  047%=      5-min Rain = 0
KWA1 111916Z 35022KT 10/M01 A3008 RMK A01 T00951013  RH  047%=      5-min Rain = 0
KWA1 111917Z 36021KT 09/M02 A3008 RMK A01 T00941015  RH  046%=      5-min Rain = 0
KWA1 111918Z 35019KT 09/M02 A3008 RMK A01 T00931016  RH  046%=      5-min Rain = 0
KWA1 111919Z 35019KT 09/M01 A3008 RMK A01 T00941014  RH  047%=      5-min Rain = 0
KWA1 111920Z 34021G26KT 10/M01 A3008 RMK A01 T00961014  RH  046%=      5-min Rain = 0
KWA1 111921Z 35020KT 10/M01 A3008 RMK A01 T00971013  RH  046%=      5-min Rain = 0
KWA1 111922Z 34018KT 10/M01 A3008 RMK A01 T00971014  RH  046%=      5-min Rain = 0
KWA1 111923Z 33019KT 10/M01 A3008 RMK A01 T00981014  RH  046%=      5-min Rain = 0
KWA1 111924Z 35021KT 10/M01 A3008 RMK A01 T00981014  RH  045%=      5-min Rain = 0
KWA1 111925Z 35019KT 10/M02 A3008 RMK A01 T00961017  RH  045%=      5-min Rain = 0
KWA1 111926Z 35020KT 10/M02 A3008 RMK A01 T00951015  RH  046%=      5-min Rain = 0
KWA1 111927Z 34017KT 10/M01 A3007 RMK A01 T00971012  RH  046%=      5-min Rain = 0
KWA1 111928Z 35022KT 10/M01 A3008 RMK A01 T01011012  RH  045%=      5-min Rain = 0
KWA1 111929Z 34018G23KT 10/M02 A3007 RMK A01 T00981016  RH  045%=      5-min Rain = 0
KWA1 111930Z 35019KT 10/M01 A3008 RMK A01 T00971014  RH  046%=      5-min Rain = 0
KWA1 111931Z 34019KT 10/M01 A3007 RMK A01 T00981014  RH  046%=      5-min Rain = 0
KWA1 111932Z 34018KT 10/M01 A3007 RMK A01 T01001014  RH  045%=      5-min Rain = 0
KWA1 111933Z 33022G27KT 10/M02 A3007 RMK A01 T00991015  RH  045%=      5-min Rain = 0
KWA1 111934Z 34022G28KT 10/M02 A3007 RMK A01 T00991015  RH  045%=      5-min Rain = 0
KWA1 111935Z 33021KT 10/M02 A3007 RMK A01 T00991015  RH  045%=      5-min Rain = 0
KWA1 111936Z 34020KT 10/M01 A3007 RMK A01 T01031012  RH  045%=      5-min Rain = 0
KWA1 111937Z 34021KT 11/M01 A3007 RMK A01 T01061011  RH  044%=      5-min Rain = 0
KWA1 111938Z 34023KT 11/M01 A3007 RMK A01 T01051013  RH  044%=      5-min Rain = 0
KWA1 111939Z 33022G28KT 10/M02 A3007 RMK A01 T01031016  RH  043%=      5-min Rain = 0
KWA1 111940Z 33023KT 11/M01 A3007 RMK A01 T01051013  RH  044%=      5-min Rain = 0
KWA1 111941Z 33024G29KT 11/M01 A3007 RMK A01 T01081013  RH  043%=      5-min Rain = 0
KWA1 111942Z 35021KT 11/M01 A3007 RMK A01 T01091013  RH  043%=      5-min Rain = 0
KWA1 111943Z 34023G28KT 11/M01 A3007 RMK A01 T01081013  RH  043%=      5-min Rain = 0
KWA1 111944Z 34026KT 11/M01 A3008 RMK A01 T01081013  RH  043%=      5-min Rain = 0
KWA1 111945Z 35026KT 11/M02 A3008 RMK A01 T01081015  RH  042%=      5-min Rain = 0
KWA1 111946Z 34027KT 11/M02 A3008 RMK A01 T01051018  RH  042%=      5-min Rain = 0
KWA1 111947Z 34025KT 10/M02 A3008 RMK A01 T01031018  RH  043%=      5-min Rain = 0
KWA1 111948Z 35026KT 10/M02 A3008 RMK A01 T01031017  RH  043%=      5-min Rain = 0
KWA1 111949Z 35023KT 10/M02 A3008 RMK A01 T01021018  RH  043%=      5-min Rain = 0
KWA1 111950Z 34022KT 10/M02 A3008 RMK A01 T01031015  RH  044%=      5-min Rain = 0
KWA1 111951Z 34021KT 11/M01 A3008 RMK A01 T01061014  RH  043%=      5-min Rain = 0
KWA1 111952Z 35024KT 11/M02 A3008 RMK A01 T01081015  RH  042%=      5-min Rain = 0
KWA1 111953Z 34021KT 11/M02 A3008 RMK A01 T01051018  RH  042%=      5-min Rain = 0
KWA1 111954Z 35021KT 11/M02 A3008 RMK A01 T01051015  RH  043%=      5-min Rain = 0
KWA1 111955Z 35018KT 11/M02 A3008 RMK A01 T01061015  RH  043%=      5-min Rain = 0
KWA1 111956Z 34021KT 11/M02 A3008 RMK A01 T01071016  RH  042%=      5-min Rain = 0
KWA1 111957Z 35019G26KT 11/M02 A3008 RMK A01 T01061016  RH  043%=      5-min Rain = 0
KWA1 111958Z 35017KT 11/M01 A3008 RMK A01 T01061014  RH  043%=      5-min Rain = 0
KWA1 111959Z 35019KT 11/M01 A3008 RMK A01 T01081013  RH  043%=      5-min Rain = 0
KWA1 112000Z 34019KT 11/M02 A3008 RMK A01 T01091015  RH  042%=      5-min Rain = 0
KWA1 112001Z 35018KT 11/M02 A3008 RMK A01 T01081016  RH  042%=      5-min Rain = 0
KWA1 112002Z 01019KT 11/M02 A3008 RMK A01 T01091016  RH  042%=      5-min Rain = 0
KWA1 112003Z 00017KT 11/M02 A3008 RMK A01 T01091016  RH  042%=      5-min Rain = 0
KWA1 112004Z 36018KT 11/M02 A3008 RMK A01 T01091017  RH  041%=      5-min Rain = 0
KWA1 112005Z 34015KT 11/M02 A3008 RMK A01 T01081017  RH  042%=      5-min Rain = 0
KWA1 112006Z 34017G22KT 11/M01 A3008 RMK A01 T01091013  RH  043%=      5-min Rain = 0
KWA1 112007Z 34016KT 11/M02 A3008 RMK A01 T01121016  RH  041%=      5-min Rain = 0
KWA1 112008Z 32018G23KT 11/M02 A3008 RMK A01 T01121017  RH  041%=      5-min Rain = 0
KWA1 112009Z 33020G25KT 12/M02 A3008 RMK A01 T01161016  RH  040%=      5-min Rain = 0
KWA1 112010Z 33017KT 12/M02 A3008 RMK A01 T01181017  RH  039%=      5-min Rain = 0
KWA1 112011Z 34016KT 12/M02 A3008 RMK A01 T01171018  RH  039%=      5-min Rain = 0
KWA1 112012Z 35015KT 12/M02 A3008 RMK A01 T01161017  RH  039%=      5-min Rain = 0
KWA1 112013Z 34014KT 12/M02 A3008 RMK A01 T01151017  RH  040%=      5-min Rain = 0
KWA1 112014Z 33023KT 12/M02 A3008 RMK A01 T01161019  RH  039%=      5-min Rain = 0
KWA1 112015Z 32024KT 12/M02 A3008 RMK A01 T01161023  RH  038%=      5-min Rain = 0
KWA1 112016Z 33021KT 12/M02 A3008 RMK A01 T01161022  RH  038%=      5-min Rain = 0
KWA1 112017Z 32025G30KT 12/M02 A3008 RMK A01 T01181021  RH  038%=      5-min Rain = 0
KWA1 112018Z 32026G33KT 12/M02 A3008 RMK A01 T01201021  RH  037%=      5-min Rain = 0
KWA1 112019Z 32024G29KT 12/M02 A3008 RMK A01 T01191024  RH  037%=      5-min Rain = 0
KWA1 112020Z 33026KT 12/M02 A3008 RMK A01 T01191022  RH  037%=      5-min Rain = 0
KWA1 112021Z 34023G28KT 12/M02 A3008 RMK A01 T01201022  RH  037%=      5-min Rain = 0
KWA1 112022Z 34029G37KT 12/M03 A3008 RMK A01 T01181025  RH  037%=      5-min Rain = 0
KWA1 112023Z 35024KT 12/M03 A3008 RMK A01 T01151027  RH  037%=      5-min Rain = 0
KWA1 112024Z 34025KT 12/M03 A3008 RMK A01 T01171025  RH  037%=      5-min Rain = 0
KWA1 112025Z 35025KT 12/M03 A3008 RMK A01 T01171029  RH  036%=      5-min Rain = 0
KWA1 112026Z 35025KT 11/M03 A3008 RMK A01 T01141029  RH  037%=      5-min Rain = 0
KWA1 112027Z 36023G30KT 11/M03 A3008 RMK A01 T01131030  RH  037%=      5-min Rain = 0
KWA1 112028Z 36025KT 11/M03 A3008 RMK A01 T01141029  RH  037%=      5-min Rain = 0
KWA1 112029Z 35020G26KT 11/M03 A3008 RMK A01 T01141030  RH  037%=      5-min Rain = 0
KWA1 112030Z 36023KT 12/M03 A3008 RMK A01 T01151027  RH  037%=      5-min Rain = 0
KWA1 112031Z 35024KT 12/M03 A3008 RMK A01 T01161028  RH  037%=      5-min Rain = 0
KWA1 112032Z 36023KT 12/M03 A3009 RMK A01 T01151028  RH  037%=      5-min Rain = 0
KWA1 112033Z 36023KT 12/M03 A3009 RMK A01 T01151029  RH  037%=      5-min Rain = 0
KWA1 112034Z 35019G25KT 12/M03 A3009 RMK A01 T01151027  RH  037%=      5-min Rain = 0
KWA1 112035Z 34019KT 12/M02 A3008 RMK A01 T01201023  RH  037%=      5-min Rain = 0
KWA1 112036Z 34017G22KT 12/M03 A3009 RMK A01 T01211025  RH  036%=      5-min Rain = 0
KWA1 112037Z 33018KT 12/M02 A3009 RMK A01 T01241023  RH  036%=      5-min Rain = 0
KWA1 112038Z 34018KT 13/M02 A3009 RMK A01 T01251024  RH  036%=      5-min Rain = 0
KWA1 112039Z 32020KT 13/M02 A3009 RMK A01 T01261024  RH  035%=      5-min Rain = 0
KWA1 112040Z 33018KT 13/M03 A3009 RMK A01 T01251030  RH  034%=      5-min Rain = 0
KWA1 112041Z 33021KT 13/M03 A3009 RMK A01 T01251030  RH  034%=      5-min Rain = 0
KWA1 112042Z 33025G31KT 12/M03 A3009 RMK A01 T01241032  RH  034%=      5-min Rain = 0
KWA1 112043Z 33026KT 12/M03 A3009 RMK A01 T01231034  RH  033%=      5-min Rain = 0
KWA1 112044Z 33024KT 12/M03 A3009 RMK A01 T01211034  RH  034%=      5-min Rain = 0
KWA1 112045Z 33024G31KT 12/M03 A3009 RMK A01 T01221034  RH  034%=      5-min Rain = 0
KWA1 112046Z 33024KT 12/M03 A3009 RMK A01 T01211033  RH  034%=      5-min Rain = 0
KWA1 112047Z 33025KT 12/M03 A3009 RMK A01 T01201034  RH  034%=      5-min Rain = 0
KWA1 112048Z 33029KT 12/M03 A3009 RMK A01 T01201033  RH  034%=      5-min Rain = 0
KWA1 112049Z 33023KT 12/M03 A301 RMK A01 T01181033  RH  035%=      5-min Rain = 0
KWA1 112050Z 33025KT 12/M03 A301 RMK A01 T01181031  RH  035%=      5-min Rain = 0
KWA1 112051Z 33028G33KT 12/M03 A301 RMK A01 T01181031  RH  035%=      5-min Rain = 0
KWA1 112052Z 32027G32KT 12/M03 A301 RMK A01 T01171031  RH  035%=      5-min Rain = 0
KWA1 112053Z 32025KT 12/M03 A301 RMK A01 T01161031  RH  036%=      5-min Rain = 0
KWA1 112054Z 33028KT 12/M03 A301 RMK A01 T01161032  RH  035%=      5-min Rain = 0
KWA1 112055Z 33028G33KT 12/M03 A301 RMK A01 T01161033  RH  035%=      5-min Rain = 0
KWA1 112056Z 33031KT 12/M04 A3009 RMK A01 T01161036  RH  034%=      5-min Rain = 0
KWA1 112057Z 33028KT 11/M04 A301 RMK A01 T01141037  RH  035%=      5-min Rain = 0
KWA1 112058Z 35028KT 11/M04 A301 RMK A01 T01141036  RH  035%=      5-min Rain = 0
KWA1 112059Z 34029G35KT 11/M04 A301 RMK A01 T01131039  RH  034%=      5-min Rain = 0
KWA1 112100Z 35026G32KT 11/M04 A3011 RMK A01 T01121044  RH  033%=      5-min Rain = 0
KWA1 112101Z 34025G30KT 11/M04 A301 RMK A01 T01101044  RH  034%=      5-min Rain = 0
KWA1 112102Z 34024G29KT 11/M05 A301 RMK A01 T01121045  RH  033%=      5-min Rain = 0
KWA1 112103Z 35020G26KT 11/M04 A3011 RMK A01 T01141042  RH  033%=      5-min Rain = 0
KWA1 112104Z 00026KT 12/M04 A3011 RMK A01 T01151044  RH  033%=      5-min Rain = 0
KWA1 112105Z 35025KT 11/M05 A3011 RMK A01 T01131047  RH  032%=      5-min Rain = 0
KWA1 112106Z 35025KT 11/M05 A3011 RMK A01 T01121046  RH  033%=      5-min Rain = 0
KWA1 112107Z 35023KT 11/M05 A3011 RMK A01 T01121046  RH  033%=      5-min Rain = 0
KWA1 112108Z 35023KT 11/M04 A3011 RMK A01 T01141044  RH  033%=      5-min Rain = 0
KWA1 112109Z 35022KT 12/M04 A3011 RMK A01 T01151043  RH  033%=      5-min Rain = 0
KWA1 112110Z 36023KT 12/M04 A3011 RMK A01 T01161044  RH  032%=      5-min Rain = 0
KWA1 112111Z 35025KT 12/M04 A3011 RMK A01 T01161044  RH  032%=      5-min Rain = 0
KWA1 112112Z 34024G29KT 12/M04 A3011 RMK A01 T01161042  RH  033%=      5-min Rain = 0
KWA1 112113Z 34021G28KT 12/M04 A3011 RMK A01 T01161041  RH  033%=      5-min Rain = 0
KWA1 112114Z 34024KT 12/M04 A3011 RMK A01 T01171043  RH  033%=      5-min Rain = 0
KWA1 112115Z 34022KT 12/M04 A3011 RMK A01 T01151044  RH  033%=      5-min Rain = 0
KWA1 112116Z 35022KT 12/M04 A3011 RMK A01 T01171042  RH  033%=      5-min Rain = 0
KWA1 112117Z 35022KT 12/M04 A3011 RMK A01 T01161043  RH  032%=      5-min Rain = 0
KWA1 112118Z 35024G29KT 12/M04 A3011 RMK A01 T01171043  RH  032%=      5-min Rain = 0
KWA1 112119Z 35022KT 12/M04 A3011 RMK A01 T01171042  RH  033%=      5-min Rain = 0
KWA1 112120Z 35024KT 12/M04 A3011 RMK A01 T01181044  RH  032%=      5-min Rain = 0
KWA1 112121Z 35022G28KT 12/M05 A3011 RMK A01 T01181045  RH  032%=      5-min Rain = 0
KWA1 112122Z 34023G28KT 12/M04 A3011 RMK A01 T01181044  RH  032%=      5-min Rain = 0
KWA1 112123Z 34021KT 12/M04 A3011 RMK A01 T01181044  RH  032%=      5-min Rain = 0
KWA1 112124Z 33020KT 12/M04 A3011 RMK A01 T01201044  RH  032%=      5-min Rain = 0
KWA1 112125Z 33022KT 12/M05 A3011 RMK A01 T01211046  RH  031%=      5-min Rain = 0
KWA1 112126Z 33026KT 12/M05 A3011 RMK A01 T01191050  RH  030%=      5-min Rain = 0
KWA1 112127Z 33021G26KT 12/M05 A3011 RMK A01 T01191049  RH  030%=      5-min Rain = 0
KWA1 112128Z 33024KT 12/M05 A3011 RMK A01 T01221048  RH  030%=      5-min Rain = 0
KWA1 112129Z 34023G29KT 12/M05 A3011 RMK A01 T01231048  RH  030%=      5-min Rain = 0
KWA1 112130Z 33027KT 12/M05 A3011 RMK A01 T01231054  RH  029%=      5-min Rain = 0
KWA1 112131Z 34024KT 12/M06 A3012 RMK A01 T01201057  RH  029%=      5-min Rain = 0
KWA1 112132Z 33025G31KT 12/M06 A3012 RMK A01 T01201057  RH  029%=      5-min Rain = 0
KWA1 112133Z 33027KT 12/M06 A3012 RMK A01 T01201060  RH  028%=      5-min Rain = 0
KWA1 112134Z 33024KT 12/M06 A3012 RMK A01 T01191061  RH  028%=      5-min Rain = 0
KWA1 112135Z 33022KT 12/M06 A3012 RMK A01 T01201059  RH  028%=      5-min Rain = 0
KWA1 112136Z 34027KT 12/M06 A3012 RMK A01 T01211059  RH  028%=      5-min Rain = 0
KWA1 112137Z 34029KT 12/M07 A3012 RMK A01 T01181065  RH  027%=      5-min Rain = 0
KWA1 112138Z 34028KT 12/M06 A3012 RMK A01 T01161064  RH  028%=      5-min Rain = 0
KWA1 112139Z 34025KT 12/M07 A3012 RMK A01 T01151066  RH  028%=      5-min Rain = 0
KWA1 112140Z 34028KT 12/M07 A3012 RMK A01 T01151066  RH  028%=      5-min Rain = 0
KWA1 112141Z 35023G28KT 12/M07 A3013 RMK A01 T01161065  RH  027%=      5-min Rain = 0
KWA1 112142Z 35026KT 12/M07 A3013 RMK A01 T01161067  RH  027%=      5-min Rain = 0
KWA1 112143Z 35024G30KT 12/M07 A3013 RMK A01 T01151067  RH  027%=      5-min Rain = 0
KWA1 112144Z 35027KT 12/M07 A3013 RMK A01 T01151069  RH  027%=      5-min Rain = 0
KWA1 112145Z 35025KT 11/M07 A3013 RMK A01 T01141068  RH  027%=      5-min Rain = 0
KWA1 112146Z 35024KT 11/M07 A3012 RMK A01 T01141068  RH  027%=      5-min Rain = 0
KWA1 112147Z 34024KT 11/M07 A3013 RMK A01 T01131068  RH  028%=      5-min Rain = 0
KWA1 112148Z 34021KT 11/M07 A3013 RMK A01 T01141067  RH  028%=      5-min Rain = 0
KWA1 112149Z 34022KT 11/M07 A3013 RMK A01 T01141066  RH  028%=      5-min Rain = 0
KWA1 112150Z 36022KT 11/M07 A3013 RMK A01 T01141066  RH  028%=      5-min Rain = 0
KWA1 112151Z 35018KT 11/M07 A3013 RMK A01 T01141065  RH  028%=      5-min Rain = 0
KWA1 112152Z 35019KT 12/M06 A3013 RMK A01 T01161062  RH  028%=      5-min Rain = 0
KWA1 112153Z 34022G28KT 12/M07 A3013 RMK A01 T01171066  RH  027%=      5-min Rain = 0
KWA1 112154Z 34022G27KT 12/M07 A3013 RMK A01 T01171068  RH  027%=      5-min Rain = 0
KWA1 112155Z 35027KT 12/M07 A3013 RMK A01 T01181071  RH  026%=      5-min Rain = 0
KWA1 112156Z 35026KT 12/M07 A3013 RMK A01 T01161074  RH  026%=      5-min Rain = 0
KWA1 112157Z 35025G30KT 12/M07 A3013 RMK A01 T01161071  RH  026%=      5-min Rain = 0
KWA1 112158Z 34023KT 12/M07 A3013 RMK A01 T01161073  RH  026%=      5-min Rain = 0
KWA1 112159Z 34025KT 12/M08 A3013 RMK A01 T01161076  RH  025%=      5-min Rain = 0
KWA1 112200Z 34024KT 12/M08 A3013 RMK A01 T01161076  RH  025%=      5-min Rain = 0
KWA1 112201Z 35023KT 12/M07 A3014 RMK A01 T01161073  RH  026%=      5-min Rain = 0
KWA1 112202Z 35024KT 12/M07 A3014 RMK A01 T01161073  RH  026%=      5-min Rain = 0
KWA1 112203Z 34024KT 12/M07 A3014 RMK A01 T01161074  RH  026%=      5-min Rain = 0
KWA1 112204Z 34026KT 12/M08 A3014 RMK A01 T01161077  RH  025%=      5-min Rain = 0
KWA1 112205Z 34023G28KT 12/M08 A3014 RMK A01 T01161077  RH  025%=      5-min Rain = 0
KWA1 112206Z 34028KT 12/M08 A3014 RMK A01 T01161079  RH  025%=      5-min Rain = 0
KWA1 112207Z 34024KT 12/M08 A3014 RMK A01 T01151083  RH  024%=      5-min Rain = 0
KWA1 112208Z 34028KT 12/M08 A3014 RMK A01 T01161082  RH  024%=      5-min Rain = 0
KWA1 112209Z 34026KT 12/M08 A3014 RMK A01 T01161082  RH  024%=      5-min Rain = 0
KWA1 112210Z 35024KT 12/M08 A3014 RMK A01 T01161083  RH  024%=      5-min Rain = 0
KWA1 112211Z 34023KT 12/M08 A3014 RMK A01 T01171079  RH  025%=      5-min Rain = 0
KWA1 112212Z 34026G33KT 12/M08 A3014 RMK A01 T01181081  RH  024%=      5-min Rain = 0
KWA1 112213Z 35022G27KT 12/M08 A3014 RMK A01 T01181078  RH  025%=      5-min Rain = 0
KWA1 112214Z 35021G27KT 12/M08 A3015 RMK A01 T01191078  RH  025%=      5-min Rain = 0
KWA1 112215Z 33022KT 12/M08 A3014 RMK A01 T01191079  RH  024%=      5-min Rain = 0
KWA1 112216Z 34023KT 12/M08 A3014 RMK A01 T01191083  RH  024%=      5-min Rain = 0
KWA1 112217Z 34023G29KT 12/M08 A3014 RMK A01 T01191082  RH  024%=      5-min Rain = 0
KWA1 112218Z 34026KT 12/M09 A3014 RMK A01 T01181085  RH  023%=      5-min Rain = 0
KWA1 112219Z 34022KT 12/M08 A3014 RMK A01 T01171083  RH  024%=      5-min Rain = 0
KWA1 112220Z 34021KT 12/M08 A3014 RMK A01 T01171083  RH  024%=      5-min Rain = 0
KWA1 112221Z 35021KT 12/M08 A3014 RMK A01 T01181083  RH  024%=      5-min Rain = 0
KWA1 112222Z 35020KT 12/M08 A3014 RMK A01 T01171082  RH  024%=      5-min Rain = 0
KWA1 112223Z 34022KT 12/M08 A3014 RMK A01 T01171082  RH  024%=      5-min Rain = 0
KWA1 112224Z 34020KT 12/M08 A3014 RMK A01 T01171081  RH  024%=      5-min Rain = 0
KWA1 112225Z 34022KT 12/M08 A3014 RMK A01 T01181083  RH  024%=      5-min Rain = 0
KWA1 112226Z 34020KT 12/M08 A3014 RMK A01 T01171083  RH  024%=      5-min Rain = 0
KWA1 112227Z 35020KT 12/M08 A3015 RMK A01 T01171081  RH  024%=      5-min Rain = 0
KWA1 112228Z 34021KT 12/M08 A3015 RMK A01 T01171082  RH  024%=      5-min Rain = 0
KWA1 112229Z 33022KT 12/M09 A3015 RMK A01 T01181088  RH  023%=      5-min Rain = 0
KWA1 112230Z 33022KT 12/M09 A3015 RMK A01 T01181088  RH  023%=      5-min Rain = 0
KWA1 112231Z 34021KT 12/M09 A3015 RMK A01 T01181087  RH  023%=      5-min Rain = 0
KWA1 112232Z 35021KT 12/M09 A3015 RMK A01 T01181085  RH  023%=      5-min Rain = 0
KWA1 112233Z 34021KT 12/M09 A3015 RMK A01 T01181087  RH  023%=      5-min Rain = 0
KWA1 112234Z 33023KT 12/M09 A3015 RMK A01 T01171088  RH  023%=      5-min Rain = 0
KWA1 112235Z 33025G30KT 12/M09 A3015 RMK A01 T01171089  RH  023%=      5-min Rain = 0
KWA1 112236Z 33027KT 12/M09 A3015 RMK A01 T01161091  RH  022%=      5-min Rain = 0
KWA1 112237Z 34023KT 12/M09 A3015 RMK A01 T01151091  RH  023%=      5-min Rain = 0
KWA1 112238Z 34022KT 12/M09 A3016 RMK A01 T01151091  RH  023%=      5-min Rain = 0
KWA1 112239Z 34024KT 12/M09 A3015 RMK A01 T01151093  RH  022%=      5-min Rain = 0
KWA1 112240Z 34024KT 12/M09 A3015 RMK A01 T01151093  RH  022%=      5-min Rain = 0
KWA1 112241Z 34025KT 12/M09 A3015 RMK A01 T01151092  RH  023%=      5-min Rain = 0
KWA1 112242Z 34025KT 12/M09 A3015 RMK A01 T01151093  RH  022%=      5-min Rain = 0
KWA1 112243Z 34024KT 12/M09 A3016 RMK A01 T01151094  RH  022%=      5-min Rain = 0
KWA1 112244Z 34026KT 12/M09 A3016 RMK A01 T01151093  RH  022%=      5-min Rain = 0
KWA1 112245Z 34026KT 12/M10 A3016 RMK A01 T01151095  RH  022%=      5-min Rain = 0
KWA1 112246Z 34024KT 11/M10 A3016 RMK A01 T01141097  RH  022%=      5-min Rain = 0
KWA1 112247Z 34025KT 11/M10 A3016 RMK A01 T01141097  RH  022%=      5-min Rain = 0
KWA1 112248Z 34024KT 11/M10 A3016 RMK A01 T01141097  RH  022%=      5-min Rain = 0
KWA1 112249Z 35025KT 11/M10 A3016 RMK A01 T01141097  RH  022%=      5-min Rain = 0
KWA1 112250Z 35021KT 11/M09 A3016 RMK A01 T01141094  RH  022%=      5-min Rain = 0
KWA1 112251Z 34022KT 11/M09 A3016 RMK A01 T01141093  RH  022%=      5-min Rain = 0
KWA1 112252Z 34021KT 11/M09 A3017 RMK A01 T01141094  RH  022%=      5-min Rain = 0
KWA1 112253Z 34021KT 11/M09 A3017 RMK A01 T01141091  RH  023%=      5-min Rain = 0
KWA1 112254Z 34021KT 11/M09 A3016 RMK A01 T01141092  RH  023%=      5-min Rain = 0
KWA1 112255Z 34023KT 11/M09 A3016 RMK A01 T01131094  RH  022%=      5-min Rain = 0
KWA1 112256Z 34024KT 11/M10 A3016 RMK A01 T01131096  RH  022%=      5-min Rain = 0
KWA1 112257Z 34021KT 11/M10 A3016 RMK A01 T01131097  RH  022%=      5-min Rain = 0
KWA1 112258Z 34022KT 11/M10 A3017 RMK A01 T01131095  RH  022%=      5-min Rain = 0
KWA1 112259Z 34020KT 11/M10 A3017 RMK A01 T01131095  RH  022%=      5-min Rain = 0
KWA1 112300Z 35021KT 11/M09 A3017 RMK A01 T01121094  RH  023%=      5-min Rain = 0
KWA1 112301Z 35021KT 11/M10 A3017 RMK A01 T01121095  RH  022%=      5-min Rain = 0
KWA1 112302Z 35020KT 11/M09 A3017 RMK A01 T01121094  RH  023%=      5-min Rain = 0
KWA1 112303Z 35021KT 11/M09 A3017 RMK A01 T01121093  RH  023%=      5-min Rain = 0
KWA1 112304Z 35016KT 11/M09 A3017 RMK A01 T01111094  RH  023%=      5-min Rain = 0
KWA1 112305Z 34015KT 11/M09 A3017 RMK A01 T01111090  RH  023%=      5-min Rain = 0
KWA1 112306Z 34018KT 11/M09 A3017 RMK A01 T01111092  RH  023%=      5-min Rain = 0
KWA1 112307Z 33019KT 11/M09 A3017 RMK A01 T01111094  RH  023%=      5-min Rain = 0
KWA1 112308Z 33019KT 11/M10 A3017 RMK A01 T01111095  RH  023%=      5-min Rain = 0
KWA1 112309Z 34022KT 11/M10 A3017 RMK A01 T01111096  RH  022%=      5-min Rain = 0
KWA1 112310Z 34026KT 11/M10 A3017 RMK A01 T01111098  RH  022%=      5-min Rain = 0
KWA1 112311Z 33025KT 11/M10 A3017 RMK A01 T01101100  RH  022%=      5-min Rain = 0
KWA1 112312Z 34026KT 11/M10 A3017 RMK A01 T01101100  RH  022%=      5-min Rain = 0
KWA1 112313Z 34024KT 11/M10 A3017 RMK A01 T01091100  RH  022%=      5-min Rain = 0
KWA1 112314Z 34022KT 11/M10 A3017 RMK A01 T01091100  RH  022%=      5-min Rain = 0
KWA1 112315Z 34023KT 11/M10 A3017 RMK A01 T01091099  RH  022%=      5-min Rain = 0
KWA1 112316Z 34022KT 11/M10 A3017 RMK A01 T01091101  RH  022%=      5-min Rain = 0
KWA1 112317Z 34023KT 11/M10 A3017 RMK A01 T01081100  RH  022%=      5-min Rain = 0
KWA1 112318Z 34023KT 11/M10 A3017 RMK A01 T01081100  RH  022%=      5-min Rain = 0
KWA1 112319Z 34022KT 11/M10 A3017 RMK A01 T01081100  RH  022%=      5-min Rain = 0
KWA1 112320Z 34020KT 11/M10 A3018 RMK A01 T01071100  RH  022%=      5-min Rain = 0
KWA1 112321Z 34018KT 11/M10 A3018 RMK A01 T01071098  RH  023%=      5-min Rain = 0
KWA1 112322Z 34018KT 11/M10 A3018 RMK A01 T01061098  RH  023%=      5-min Rain = 0
KWA1 112323Z 34016KT 11/M10 A3018 RMK A01 T01061097  RH  023%=      5-min Rain = 0
KWA1 112324Z 34019KT 11/M10 A3018 RMK A01 T01061096  RH  023%=      5-min Rain = 0
KWA1 112325Z 34020KT 11/M10 A3018 RMK A01 T01061097  RH  023%=      5-min Rain = 0
KWA1 112326Z 34017KT 11/M10 A3018 RMK A01 T01061098  RH  023%=      5-min Rain = 0
KWA1 112327Z 34018KT 11/M10 A3018 RMK A01 T01051097  RH  023%=      5-min Rain = 0
KWA1 112328Z 34019KT 10/M10 A3018 RMK A01 T01041097  RH  023%=      5-min Rain = 0
KWA1 112329Z 34019KT 11/M10 A3018 RMK A01 T01051097  RH  023%=      5-min Rain = 0
KWA1 112330Z 34018KT 10/M10 A3018 RMK A01 T01041096  RH  023%=      5-min Rain = 0
KWA1 112331Z 34019KT 10/M10 A3018 RMK A01 T01031096  RH  024%=      5-min Rain = 0
KWA1 112332Z 33016KT 10/M10 A3018 RMK A01 T01031095  RH  024%=      5-min Rain = 0
KWA1 112333Z 34020KT 10/M10 A3018 RMK A01 T01021097  RH  024%=      5-min Rain = 0
KWA1 112334Z 34019KT 10/M10 A3019 RMK A01 T01031097  RH  024%=      5-min Rain = 0
KWA1 112335Z 34016KT 10/M10 A3019 RMK A01 T01021096  RH  024%=      5-min Rain = 0
KWA1 112336Z 34017KT 10/M10 A3019 RMK A01 T01021096  RH  024%=      5-min Rain = 0
KWA1 112337Z 34018KT 10/M10 A3019 RMK A01 T01011097  RH  024%=      5-min Rain = 0
KWA1 112338Z 34016KT 10/M10 A3019 RMK A01 T01011096  RH  024%=      5-min Rain = 0
KWA1 112339Z 34014KT 10/M10 A3019 RMK A01 T01011096  RH  024%=      5-min Rain = 0
KWA1 112340Z 34014KT 10/M10 A3019 RMK A01 T00991095  RH  024%=      5-min Rain = 0
KWA1 112341Z 34013KT 10/M10 A3019 RMK A01 T00991095  RH  025%=      5-min Rain = 0
KWA1 112342Z 34014KT 10/M10 A3019 RMK A01 T00981095  RH  025%=      5-min Rain = 0
KWA1 112343Z 34012KT 10/M10 A3019 RMK A01 T00971095  RH  025%=      5-min Rain = 0
KWA1 112344Z 34014KT 10/M10 A3019 RMK A01 T00961095  RH  025%=      5-min Rain = 0
KWA1 112345Z 34014KT 10/M10 A3019 RMK A01 T00961095  RH  025%=      5-min Rain = 0
KWA1 112346Z 34015KT 10/M10 A3019 RMK A01 T00961096  RH  025%=      5-min Rain = 0
KWA1 112347Z 34017KT 10/M10 A3019 RMK A01 T00961097  RH  025%=      5-min Rain = 0
KWA1 112348Z 34016KT 10/M10 A3019 RMK A01 T00981098  RH  024%=      5-min Rain = 0
KWA1 112349Z 34016KT 10/M10 A3019 RMK A01 T00981097  RH  024%=      5-min Rain = 0
KWA1 112350Z 34016KT 10/M10 A3019 RMK A01 T00971097  RH  024%=      5-min Rain = 0
KWA1 112351Z 34017KT 10/M10 A302 RMK A01 T00961097  RH  025%=      5-min Rain = 0
KWA1 112352Z 34024G31KT 10/M10 A3019 RMK A01 T00961099  RH  024%=      5-min Rain = 0
KWA1 112353Z 34028KT 10/M10 A3019 RMK A01 T00971104  RH  023%=      5-min Rain = 0
KWA1 112354Z 34027KT 10/M11 A302 RMK A01 T00971107  RH  023%=      5-min Rain = 0
KWA1 112355Z 35025KT 10/M11 A302 RMK A01 T00971109  RH  022%=      5-min Rain = 0
KWA1 112356Z 35022G27KT 10/M11 A302 RMK A01 T00961108  RH  022%=      5-min Rain = 0
KWA1 112357Z 36021G26KT 10/M11 A302 RMK A01 T00951108  RH  023%=      5-min Rain = 0
KWA1 112358Z 36023KT 09/M11 A302 RMK A01 T00941109  RH  023%=      5-min Rain = 0
KWA1 112359Z 00022KT 09/M11 A302 RMK A01 T00941111  RH  022%=      5-min Rain = 0
KWA1 120000Z 36022KT 09/M11 A3021 RMK A01 T00931112  RH  022%=      5-min Rain = 0
KWA1 120001Z 36022KT 09/M11 A302 RMK A01 T00921111  RH  022%=      5-min Rain = 0
KWA1 120002Z 36021KT 09/M11 A302 RMK A01 T00921111  RH  023%=      5-min Rain = 0
KWA1 120003Z 00019KT 09/M11 A3021 RMK A01 T00901111  RH  023%=      5-min Rain = 0
KWA1 120004Z 00020KT 09/M11 A3021 RMK A01 T00891110  RH  023%=      5-min Rain = 0
KWA1 120005Z 00019KT 09/M11 A3021 RMK A01 T00881110  RH  023%=      5-min Rain = 0
KWA1 120006Z 00019KT 09/M11 A3021 RMK A01 T00871109  RH  024%=      5-min Rain = 0
KWA1 120007Z 35018KT 09/M11 A3021 RMK A01 T00861109  RH  024%=      5-min Rain = 0
KWA1 120008Z 36017KT 09/M11 A3021 RMK A01 T00851108  RH  024%=      5-min Rain = 0
KWA1 120009Z 36016KT 09/M11 A3021 RMK A01 T00851108  RH  024%=      5-min Rain = 0
KWA1 120010Z 36016KT 08/M11 A3021 RMK A01 T00841108  RH  024%=      5-min Rain = 0
KWA1 120011Z 36015KT 08/M11 A3021 RMK A01 T00841107  RH  025%=      5-min Rain = 0
KWA1 120012Z 36015KT 08/M11 A3021 RMK A01 T00831107  RH  025%=      5-min Rain = 0
KWA1 120013Z 35015KT 08/M11 A3021 RMK A01 T00821107  RH  025%=      5-min Rain = 0
KWA1 120014Z 36015KT 08/M11 A3022 RMK A01 T00821106  RH  025%=      5-min Rain = 0
KWA1 120015Z 36015KT 08/M11 A3022 RMK A01 T00811107  RH  025%=      5-min Rain = 0
KWA1 120016Z 36013KT 08/M11 A3022 RMK A01 T00811106  RH  025%=      5-min Rain = 0
KWA1 120017Z 36013KT 08/M11 A3022 RMK A01 T00811105  RH  026%=      5-min Rain = 0
KWA1 120018Z 36012KT 08/M11 A3022 RMK A01 T00791105  RH  026%=      5-min Rain = 0
KWA1 120019Z 35014KT 08/M11 A3022 RMK A01 T00781106  RH  026%=      5-min Rain = 0
KWA1 120020Z 35013KT 08/M11 A3022 RMK A01 T00791105  RH  026%=      5-min Rain = 0
KWA1 120021Z 35013KT 08/M10 A3022 RMK A01 T00781104  RH  026%=      5-min Rain = 0
KWA1 120022Z 35012KT 08/M10 A3022 RMK A01 T00771104  RH  026%=      5-min Rain = 0
KWA1 120023Z 35012KT 08/M10 A3022 RMK A01 T00761104  RH  027%=      5-min Rain = 0
KWA1 120024Z 35012KT 08/M10 A3022 RMK A01 T00761104  RH  027%=      5-min Rain = 0
KWA1 120025Z 35012KT 08/M10 A3022 RMK A01 T00761104  RH  027%=      5-min Rain = 0
KWA1 120026Z 35012KT 08/M10 A3022 RMK A01 T00761104  RH  027%=      5-min Rain = 0
KWA1 120027Z 35012KT 08/M10 A3022 RMK A01 T00751104  RH  027%=      5-min Rain = 0
KWA1 120028Z 35011KT 08/M10 A3022 RMK A01 T00751104  RH  027%=      5-min Rain = 0
KWA1 120029Z 35011KT 07/M10 A3022 RMK A01 T00741103  RH  027%=      5-min Rain = 0
KWA1 120030Z 35012KT 07/M10 A3022 RMK A01 T00741103  RH  027%=      5-min Rain = 0
KWA1 120031Z 35012KT 07/M10 A3022 RMK A01 T00741103  RH  027%=      5-min Rain = 0
KWA1 120032Z 35011KT 07/M10 A3022 RMK A01 T00731103  RH  027%=      5-min Rain = 0
KWA1 120033Z 35011KT 07/M10 A3022 RMK A01 T00721103  RH  027%=      5-min Rain = 0
KWA1 120034Z 35011KT 07/M10 A3022 RMK A01 T00721103  RH  028%=      5-min Rain = 0
KWA1 120035Z 35012KT 07/M10 A3022 RMK A01 T00711102  RH  028%=      5-min Rain = 0
KWA1 120036Z 34012KT 07/M10 A3022 RMK A01 T00711102  RH  028%=      5-min Rain = 0
KWA1 120037Z 34011KT 07/M10 A3023 RMK A01 T00711102  RH  028%=      5-min Rain = 0
KWA1 120038Z 34011KT 07/M10 A3023 RMK A01 T00711102  RH  028%=      5-min Rain = 0
KWA1 120039Z 34012KT 07/M10 A3023 RMK A01 T00701103  RH  028%=      5-min Rain = 0
KWA1 120040Z 34012KT 07/M10 A3023 RMK A01 T00701101  RH  028%=      5-min Rain = 0
KWA1 120041Z 34011KT 07/M10 A3023 RMK A01 T00701101  RH  028%=      5-min Rain = 0
KWA1 120042Z 34011KT 07/M10 A3023 RMK A01 T00681102  RH  029%=      5-min Rain = 0
KWA1 120043Z 34011KT 07/M10 A3023 RMK A01 T00681102  RH  029%=      5-min Rain = 0
KWA1 120044Z 34012KT 07/M10 A3023 RMK A01 T00671101  RH  029%=      5-min Rain = 0
KWA1 120045Z 34011KT 07/M10 A3023 RMK A01 T00671101  RH  029%=      5-min Rain = 0
KWA1 120046Z 33010KT 07/M10 A3023 RMK A01 T00661101  RH  029%=      5-min Rain = 0
KWA1 120047Z 33011KT 07/M10 A3023 RMK A01 T00661102  RH  029%=      5-min Rain = 0
KWA1 120048Z 33010KT 07/M10 A3024 RMK A01 T00651102  RH  029%=      5-min Rain = 0
KWA1 120049Z 33012KT 06/M10 A3024 RMK A01 T00631103  RH  029%=      5-min Rain = 0
KWA1 120050Z 34013KT 07/M10 A3024 RMK A01 T00651103  RH  029%=      5-min Rain = 0
KWA1 120051Z 34012KT 07/M10 A3024 RMK A01 T00681102  RH  029%=      5-min Rain = 0
KWA1 120052Z 34011KT 07/M10 A3024 RMK A01 T00671102  RH  029%=      5-min Rain = 0
KWA1 120053Z 34011KT 07/M10 A3024 RMK A01 T00661101  RH  029%=      5-min Rain = 0
KWA1 120054Z 34011KT 06/M10 A3024 RMK A01 T00641101  RH  030%=      5-min Rain = 0
KWA1 120055Z 34011KT 06/M10 A3024 RMK A01 T00631102  RH  030%=      5-min Rain = 0
KWA1 120056Z 33011KT 06/M10 A3024 RMK A01 T00641102  RH  030%=      5-min Rain = 0
KWA1 120057Z 34010KT 06/M10 A3024 RMK A01 T00631101  RH  030%=      5-min Rain = 0
KWA1 120058Z 34009KT 06/M10 A3024 RMK A01 T00621101  RH  030%=      5-min Rain = 0
KWA1 120059Z 34010KT 06/M10 A3024 RMK A01 T00611101  RH  030%=      5-min Rain = 0
KWA1 120100Z 34010KT 06/M10 A3024 RMK A01 T00611101  RH  030%=      5-min Rain = 0
KWA1 120101Z 34010KT 06/M10 A3024 RMK A01 T00611101  RH  030%=      5-min Rain = 0
KWA1 120102Z 34010KT 06/M10 A3024 RMK A01 T00611101  RH  030%=      5-min Rain = 0
KWA1 120103Z 34009KT 06/M10 A3025 RMK A01 T00611101  RH  030%=      5-min Rain = 0
KWA1 120104Z 34010KT 06/M10 A3025 RMK A01 T00601101  RH  030%=      5-min Rain = 0
KWA1 120105Z 34009KT 06/M10 A3025 RMK A01 T00601101  RH  031%=      5-min Rain = 0
KWA1 120106Z 34009KT 06/M10 A3025 RMK A01 T00591101  RH  031%=      5-min Rain = 0
KWA1 120107Z 34009KT 06/M10 A3025 RMK A01 T00581100  RH  031%=      5-min Rain = 0
KWA1 120108Z 34009KT 06/M10 A3025 RMK A01 T00561100  RH  031%=      5-min Rain = 0
KWA1 120109Z 34008KT 06/M10 A3025 RMK A01 T00551099  RH  032%=      5-min Rain = 0
KWA1 120110Z 34008KT 05/M10 A3025 RMK A01 T00531100  RH  032%=      5-min Rain = 0
KWA1 120111Z 34009KT 05/M10 A3025 RMK A01 T00521100  RH  032%=      5-min Rain = 0
KWA1 120112Z 34009KT 05/M10 A3025 RMK A01 T00511100  RH  033%=      5-min Rain = 0
KWA1 120113Z 34009KT 05/M10 A3025 RMK A01 T00501100  RH  033%=      5-min Rain = 0
KWA1 120114Z 34008KT 05/M10 A3025 RMK A01 T00501100  RH  033%=      5-min Rain = 0
KWA1 120115Z 34009KT 05/M10 A3025 RMK A01 T00491099  RH  033%=      5-min Rain = 0
KWA1 120116Z 34009KT 05/M10 A3025 RMK A01 T00481100  RH  033%=      5-min Rain = 0
KWA1 120117Z 34010KT 05/M10 A3025 RMK A01 T00481099  RH  034%=      5-min Rain = 0
KWA1 120118Z 34009KT 05/M10 A3025 RMK A01 T00491099  RH  033%=      5-min Rain = 0
KWA1 120119Z 34010KT 05/M10 A3025 RMK A01 T00511099  RH  033%=      5-min Rain = 0
KWA1 120120Z 34012KT 05/M10 A3025 RMK A01 T00541098  RH  032%=      5-min Rain = 0
KWA1 120121Z 34012KT 06/M10 A3025 RMK A01 T00571097  RH  032%=      5-min Rain = 0
KWA1 120122Z 34012KT 06/M10 A3025 RMK A01 T00591097  RH  032%=      5-min Rain = 0
KWA1 120123Z 34012KT 06/M10 A3025 RMK A01 T00601097  RH  031%=      5-min Rain = 0
KWA1 120124Z 34011KT 06/M10 A3025 RMK A01 T00611096  RH  031%=      5-min Rain = 0
KWA1 120125Z 34011KT 06/M10 A3025 RMK A01 T00611096  RH  031%=      5-min Rain = 0
KWA1 120126Z 34012KT 06/M10 A3025 RMK A01 T00611097  RH  031%=      5-min Rain = 0
KWA1 120127Z 34012KT 06/M10 A3025 RMK A01 T00631097  RH  031%=      5-min Rain = 0
KWA1 120128Z 34012KT 06/M10 A3025 RMK A01 T00631097  RH  031%=      5-min Rain = 0
KWA1 120129Z 34011KT 06/M10 A3025 RMK A01 T00631096  RH  031%=      5-min Rain = 0
KWA1 120130Z 34011KT 06/M10 A3025 RMK A01 T00621097  RH  031%=      5-min Rain = 0
KWA1 120131Z 34011KT 06/M10 A3025 RMK A01 T00621097  RH  031%=      5-min Rain = 0
KWA1 120132Z 34011KT 06/M10 A3025 RMK A01 T00621097  RH  031%=      5-min Rain = 0
KWA1 120133Z 34010KT 06/M10 A3025 RMK A01 T00611097  RH  031%=      5-min Rain = 0
KWA1 120134Z 34010KT 06/M10 A3025 RMK A01 T00601097  RH  031%=      5-min Rain = 0
KWA1 120135Z 34010KT 06/M10 A3025 RMK A01 T00601096  RH  032%=      5-min Rain = 0
KWA1 120136Z 34010KT 06/M10 A3025 RMK A01 T00591096  RH  032%=      5-min Rain = 0
KWA1 120137Z 34010KT 06/M10 A3025 RMK A01 T00581096  RH  032%=      5-min Rain = 0
KWA1 120138Z 34010KT 06/M10 A3025 RMK A01 T00571096  RH  032%=      5-min Rain = 0
KWA1 120139Z 34010KT 06/M10 A3025 RMK A01 T00561096  RH  033%=      5-min Rain = 0
KWA1 120140Z 34009KT 06/M10 A3025 RMK A01 T00551096  RH  033%=      5-min Rain = 0
KWA1 120141Z 34010KT 05/M10 A3025 RMK A01 T00531096  RH  033%=      5-min Rain = 0
KWA1 120142Z 34009KT 05/M10 A3025 RMK A01 T00521096  RH  033%=      5-min Rain = 0
KWA1 120143Z 34009KT 05/M10 A3025 RMK A01 T00511096  RH  034%=      5-min Rain = 0
KWA1 120144Z 34010KT 05/M10 A3025 RMK A01 T00501097  RH  034%=      5-min Rain = 0
KWA1 120145Z 34010KT 05/M10 A3025 RMK A01 T00491097  RH  034%=      5-min Rain = 0
KWA1 120146Z 34009KT 05/M10 A3025 RMK A01 T00491097  RH  034%=      5-min Rain = 0
KWA1 120147Z 33009KT 05/M10 A3025 RMK A01 T00481097  RH  034%=      5-min Rain = 0
KWA1 120148Z 34009KT 05/M10 A3025 RMK A01 T00471096  RH  035%=      5-min Rain = 0
KWA1 120149Z 34010KT 05/M10 A3025 RMK A01 T00451096  RH  035%=      5-min Rain = 0
KWA1 120150Z 34009KT 04/M10 A3025 RMK A01 T00441097  RH  035%=      5-min Rain = 0
KWA1 120151Z 34010KT 04/M10 A3025 RMK A01 T00431097  RH  035%=      5-min Rain = 0
KWA1 120152Z 34009KT 04/M10 A3025 RMK A01 T00421097  RH  036%=      5-min Rain = 0
KWA1 120153Z 34009KT 04/M10 A3025 RMK A01 T00421097  RH  036%=      5-min Rain = 0
KWA1 120154Z 34009KT 04/M10 A3026 RMK A01 T00411097  RH  036%=      5-min Rain = 0
KWA1 120155Z 34009KT 04/M10 A3026 RMK A01 T00401097  RH  036%=      5-min Rain = 0
KWA1 120156Z 34010KT 04/M10 A3026 RMK A01 T00391097  RH  036%=      5-min Rain = 0
KWA1 120157Z 34009KT 04/M10 A3026 RMK A01 T00391097  RH  036%=      5-min Rain = 0
KWA1 120158Z 34009KT 04/M10 A3026 RMK A01 T00391098  RH  036%=      5-min Rain = 0
KWA1 120159Z 34009KT 04/M10 A3026 RMK A01 T00391097  RH  036%=      5-min Rain = 0
KWA1 120200Z 34009KT 04/M10 A3026 RMK A01 T00381097  RH  037%=      5-min Rain = 0
KWA1 120201Z 34009KT 04/M10 A3026 RMK A01 T00371097  RH  037%=      5-min Rain = 0
KWA1 120202Z 34009KT 04/M10 A3026 RMK A01 T00371096  RH  037%=      5-min Rain = 0
KWA1 120203Z 34009KT 04/M10 A3026 RMK A01 T00371097  RH  037%=      5-min Rain = 0
KWA1 120204Z 34009KT 04/M10 A3026 RMK A01 T00361097  RH  037%=      5-min Rain = 0
KWA1 120205Z 34009KT 04/M10 A3026 RMK A01 T00351096  RH  037%=      5-min Rain = 0
KWA1 120206Z 34009KT 04/M10 A3026 RMK A01 T00351096  RH  038%=      5-min Rain = 0
KWA1 120207Z 33009KT 04/M10 A3026 RMK A01 T00351096  RH  038%=      5-min Rain = 0
KWA1 120208Z 33009KT 03/M10 A3026 RMK A01 T00341096  RH  038%=      5-min Rain = 0
KWA1 120209Z 33009KT 03/M10 A3026 RMK A01 T00341096  RH  038%=      5-min Rain = 0
KWA1 120210Z 33010KT 03/M10 A3026 RMK A01 T00341096  RH  038%=      5-min Rain = 0
KWA1 120211Z 33010KT 03/M10 A3026 RMK A01 T00341096  RH  038%=      5-min Rain = 0
KWA1 120212Z 33010KT 03/M10 A3026 RMK A01 T00341096  RH  038%=      5-min Rain = 0
KWA1 120213Z 33010KT 04/M10 A3026 RMK A01 T00351095  RH  038%=      5-min Rain = 0
KWA1 120214Z 33010KT 04/M10 A3026 RMK A01 T00351095  RH  038%=      5-min Rain = 0
KWA1 120215Z 33010KT 04/M10 A3026 RMK A01 T00361095  RH  038%=      5-min Rain = 0
KWA1 120216Z 33010KT 04/M10 A3026 RMK A01 T00361095  RH  038%=      5-min Rain = 0
KWA1 120217Z 33010KT 04/M10 A3026 RMK A01 T00371095  RH  038%=      5-min Rain = 0
KWA1 120218Z 33009KT 04/M10 A3026 RMK A01 T00371095  RH  038%=      5-min Rain = 0
KWA1 120219Z 33010KT 04/M10 A3026 RMK A01 T00371095  RH  038%=      5-min Rain = 0
KWA1 120220Z 33010KT 04/M10 A3026 RMK A01 T00361095  RH  038%=      5-min Rain = 0
KWA1 120221Z 33010KT 04/M10 A3026 RMK A01 T00351095  RH  038%=      5-min Rain = 0
KWA1 120222Z 33010KT 04/M10 A3026 RMK A01 T00351095  RH  038%=      5-min Rain = 0
KWA1 120223Z 33010KT 03/M10 A3027 RMK A01 T00341095  RH  038%=      5-min Rain = 0
KWA1 120224Z 33010KT 03/M10 A3027 RMK A01 T00331095  RH  038%=      5-min Rain = 0
KWA1 120225Z 33009KT 03/M10 A3026 RMK A01 T00331095  RH  039%=      5-min Rain = 0
KWA1 120226Z 33009KT 03/M10 A3026 RMK A01 T00321095  RH  039%=      5-min Rain = 0
KWA1 120227Z 33009KT 03/M10 A3026 RMK A01 T00321095  RH  039%=      5-min Rain = 0
KWA1 120228Z 33010KT 03/M10 A3027 RMK A01 T00311096  RH  039%=      5-min Rain = 0
KWA1 120229Z 33010KT 03/M10 A3027 RMK A01 T00291096  RH  039%=      5-min Rain = 0
KWA1 120230Z 34010KT 03/M10 A3027 RMK A01 T00291096  RH  039%=      5-min Rain = 0
KWA1 120231Z 34009KT 03/M10 A3027 RMK A01 T00331095  RH  039%=      5-min Rain = 0
KWA1 120232Z 34009KT 04/M10 A3027 RMK A01 T00361095  RH  038%=      5-min Rain = 0
KWA1 120233Z 34010KT 04/M10 A3027 RMK A01 T00361096  RH  038%=      5-min Rain = 0
KWA1 120234Z 34010KT 04/M10 A3027 RMK A01 T00361096  RH  038%=      5-min Rain = 0
KWA1 120235Z 34011KT 04/M10 A3027 RMK A01 T00371096  RH  037%=      5-min Rain = 0
KWA1 120236Z 34011KT 04/M10 A3027 RMK A01 T00411095  RH  036%=      5-min Rain = 0
KWA1 120237Z 34010KT 05/M10 A3027 RMK A01 T00451095  RH  035%=      5-min Rain = 0
KWA1 120238Z 34010KT 05/M10 A3027 RMK A01 T00461095  RH  035%=      5-min Rain = 0
KWA1 120239Z 34010KT 04/M10 A3027 RMK A01 T00441096  RH  035%=      5-min Rain = 0
KWA1 120240Z 33009KT 04/M10 A3027 RMK A01 T00411096  RH  036%=      5-min Rain = 0
KWA1 120241Z 33009KT 04/M10 A3027 RMK A01 T00381096  RH  037%=      5-min Rain = 0
KWA1 120242Z 33009KT 04/M10 A3027 RMK A01 T00361096  RH  037%=      5-min Rain = 0
KWA1 120243Z 33009KT 04/M10 A3027 RMK A01 T00351095  RH  038%=      5-min Rain = 0
KWA1 120244Z 33008KT 03/M10 A3027 RMK A01 T00341095  RH  038%=      5-min Rain = 0
KWA1 120245Z 33008KT 03/M10 A3027 RMK A01 T00331095  RH  039%=      5-min Rain = 0
KWA1 120246Z 33009KT 03/M10 A3028 RMK A01 T00321095  RH  039%=      5-min Rain = 0
KWA1 120247Z 33009KT 03/M09 A3028 RMK A01 T00311094  RH  039%=      5-min Rain = 0
KWA1 120248Z 32009KT 03/M10 A3028 RMK A01 T00311095  RH  039%=      5-min Rain = 0
KWA1 120249Z 33009KT 03/M10 A3028 RMK A01 T00321095  RH  039%=      5-min Rain = 0
KWA1 120250Z 33009KT 03/M10 A3028 RMK A01 T00321095  RH  039%=      5-min Rain = 0
KWA1 120251Z 33009KT 03/M10 A3028 RMK A01 T00331095  RH  039%=      5-min Rain = 0
KWA1 120252Z 33009KT 03/M10 A3028 RMK A01 T00331095  RH  039%=      5-min Rain = 0
KWA1 120253Z 33009KT 03/M09 A3028 RMK A01 T00331094  RH  039%=      5-min Rain = 0
KWA1 120254Z 33008KT 03/M10 A3028 RMK A01 T00331095  RH  039%=      5-min Rain = 0
KWA1 120255Z 33008KT 03/M10 A3028 RMK A01 T00331095  RH  039%=      5-min Rain = 0
KWA1 120256Z 33009KT 03/M10 A3028 RMK A01 T00331095  RH  039%=      5-min Rain = 0
KWA1 120257Z 33008KT 03/M10 A3028 RMK A01 T00331095  RH  039%=      5-min Rain = 0
KWA1 120258Z 33009KT 03/M09 A3028 RMK A01 T00341094  RH  039%=      5-min Rain = 0
KWA1 120259Z 33009KT 03/M09 A3028 RMK A01 T00331094  RH  039%=      5-min Rain = 0
KWA1 120300Z 33008KT 03/M09 A3029 RMK A01 T00331094  RH  039%=      5-min Rain = 0
KWA1 120301Z 33008KT 03/M09 A3029 RMK A01 T00331094  RH  039%=      5-min Rain = 0
KWA1 120302Z 33008KT 03/M09 A3029 RMK A01 T00331094  RH  039%=      5-min Rain = 0
KWA1 120303Z 33008KT 03/M09 A3029 RMK A01 T00331094  RH  039%=      5-min Rain = 0
KWA1 120304Z 33008KT 03/M09 A3029 RMK A01 T00331094  RH  039%=      5-min Rain = 0
KWA1 120305Z 33008KT 03/M09 A3029 RMK A01 T00331094  RH  039%=      5-min Rain = 0
KWA1 120306Z 33008KT 03/M09 A3029 RMK A01 T00321094  RH  039%=      5-min Rain = 0
KWA1 120307Z 33008KT 03/M09 A3029 RMK A01 T00321094  RH  039%=      5-min Rain = 0
KWA1 120308Z 33008KT 03/M09 A3029 RMK A01 T00311094  RH  039%=      5-min Rain = 0
KWA1 120309Z 33007KT 03/M09 A3029 RMK A01 T00311094  RH  039%=      5-min Rain = 0
KWA1 120310Z 33007KT 03/M09 A3029 RMK A01 T00311094  RH  039%=      5-min Rain = 0
KWA1 120311Z 33007KT 03/M09 A3029 RMK A01 T00311094  RH  039%=      5-min Rain = 0
KWA1 120312Z 33007KT 03/M10 A3029 RMK A01 T00311095  RH  039%=      5-min Rain = 0
KWA1 120313Z 32007KT 03/M09 A3029 RMK A01 T00301094  RH  039%=      5-min Rain = 0
KWA1 120314Z 32007KT 03/M09 A3029 RMK A01 T00301094  RH  040%=      5-min Rain = 0
KWA1 120315Z 32007KT 03/M10 A3029 RMK A01 T00291095  RH  040%=      5-min Rain = 0
KWA1 120316Z 32007KT 03/M10 A3029 RMK A01 T00281095  RH  040%=      5-min Rain = 0
KWA1 120317Z 32007KT 03/M10 A3029 RMK A01 T00281096  RH  040%=      5-min Rain = 0
KWA1 120318Z 32007KT 03/M10 A3029 RMK A01 T00271096  RH  040%=      5-min Rain = 0
KWA1 120319Z 32006KT 03/M10 A3029 RMK A01 T00261097  RH  040%=      5-min Rain = 0
KWA1 120320Z 32006KT 03/M10 A3029 RMK A01 T00261098  RH  040%=      5-min Rain = 0
KWA1 120321Z 32006KT 03/M10 A3029 RMK A01 T00261098  RH  040%=      5-min Rain = 0
KWA1 120322Z 31006KT 03/M10 A3029 RMK A01 T00261098  RH  040%=      5-min Rain = 0
KWA1 120323Z 31006KT 03/M10 A3029 RMK A01 T00251097  RH  040%=      5-min Rain = 0
KWA1 120324Z 31006KT 03/M10 A3029 RMK A01 T00251097  RH  040%=      5-min Rain = 0
KWA1 120325Z 31006KT 03/M10 A303 RMK A01 T00261097  RH  040%=      5-min Rain = 0
KWA1 120326Z 31005KT 03/M10 A303 RMK A01 T00261096  RH  040%=      5-min Rain = 0
KWA1 120327Z 31005KT 02/M10 A303 RMK A01 T00241096  RH  041%=      5-min Rain = 0
KWA1 120328Z 31005KT 02/M10 A303 RMK A01 T00231096  RH  041%=      5-min Rain = 0
KWA1 120329Z 31005KT 02/M10 A303 RMK A01 T00231096  RH  041%=      5-min Rain = 0
KWA1 120330Z 30005KT 02/M10 A303 RMK A01 T00231096  RH  041%=      5-min Rain = 0
KWA1 120331Z 30006KT 02/M10 A303 RMK A01 T00231096  RH  041%=      5-min Rain = 0
KWA1 120332Z 31006KT 02/M10 A303 RMK A01 T00231096  RH  041%=      5-min Rain = 0
KWA1 120333Z 31005KT 03/M10 A303 RMK A01 T00251095  RH  041%=      5-min Rain = 0
KWA1 120334Z 31005KT 03/M10 A303 RMK A01 T00271095  RH  040%=      5-min Rain = 0
KWA1 120335Z 31005KT 03/M10 A303 RMK A01 T00271095  RH  040%=      5-min Rain = 0
KWA1 120336Z 30005KT 03/M10 A303 RMK A01 T00271095  RH  040%=      5-min Rain = 0
KWA1 120337Z 31005KT 03/M10 A303 RMK A01 T00261095  RH  040%=      5-min Rain = 0
KWA1 120338Z 31005KT 03/M10 A303 RMK A01 T00251095  RH  041%=      5-min Rain = 0
KWA1 120339Z 31006KT 02/M10 A303 RMK A01 T00241096  RH  041%=      5-min Rain = 0
KWA1 120340Z 32006KT 03/M10 A303 RMK A01 T00251096  RH  041%=      5-min Rain = 0
KWA1 120341Z 31006KT 03/M10 A303 RMK A01 T00261095  RH  040%=      5-min Rain = 0
KWA1 120342Z 31006KT 03/M10 A303 RMK A01 T00261096  RH  040%=      5-min Rain = 0
KWA1 120343Z 31006KT 03/M10 A303 RMK A01 T00271096  RH  040%=      5-min Rain = 0
KWA1 120344Z 30006KT 03/M10 A303 RMK A01 T00271096  RH  040%=      5-min Rain = 0
KWA1 120345Z 30006KT 03/M10 A303 RMK A01 T00271096  RH  040%=      5-min Rain = 0
KWA1 120346Z 30006KT 03/M10 A303 RMK A01 T00261096  RH  040%=      5-min Rain = 0
KWA1 120347Z 30006KT 02/M10 A303 RMK A01 T00231097  RH  041%=      5-min Rain = 0
KWA1 120348Z 29006KT 02/M10 A303 RMK A01 T00221097  RH  041%=      5-min Rain = 0
KWA1 120349Z 30006KT 02/M10 A303 RMK A01 T00221096  RH  041%=      5-min Rain = 0
KWA1 120350Z 30006KT 02/M10 A303 RMK A01 T00221096  RH  041%=      5-min Rain = 0
KWA1 120351Z 29006KT 02/M10 A303 RMK A01 T00231095  RH  041%=      5-min Rain = 0
KWA1 120352Z 30006KT 02/M10 A303 RMK A01 T00231095  RH  041%=      5-min Rain = 0
KWA1 120353Z 30006KT 02/M10 A303 RMK A01 T00241095  RH  041%=      5-min Rain = 0
KWA1 120354Z 30006KT 02/M10 A303 RMK A01 T00241095  RH  041%=      5-min Rain = 0
KWA1 120355Z 29006KT 02/M10 A303 RMK A01 T00231095  RH  041%=      5-min Rain = 0
KWA1 120356Z 29006KT 02/M10 A303 RMK A01 T00241095  RH  041%=      5-min Rain = 0
KWA1 120357Z 30006KT 02/M10 A303 RMK A01 T00241095  RH  041%=      5-min Rain = 0
KWA1 120358Z 30005KT 02/M10 A303 RMK A01 T00231095  RH  041%=      5-min Rain = 0
KWA1 120359Z 29005KT 02/M10 A303 RMK A01 T00231096  RH  041%=      5-min Rain = 0
KWA1 120400Z 29005KT 02/M10 A303 RMK A01 T00211097  RH  041%=      5-min Rain = 0
KWA1 120401Z 30005KT 02/M10 A303 RMK A01 T00171097  RH  042%=      5-min Rain = 0
KWA1 120402Z 29005KT 02/M10 A303 RMK A01 T00161097  RH  043%=      5-min Rain = 0
KWA1 120403Z 29005KT 02/M10 A303 RMK A01 T00161096  RH  043%=      5-min Rain = 0
KWA1 120404Z 29005KT 02/M10 A303 RMK A01 T00171096  RH  043%=      5-min Rain = 0
KWA1 120405Z 29005KT 02/M10 A303 RMK A01 T00181095  RH  043%=      5-min Rain = 0
KWA1 120406Z 29005KT 02/M10 A303 RMK A01 T00181096  RH  042%=      5-min Rain = 0
KWA1 120407Z 29005KT 02/M10 A303 RMK A01 T00211095  RH  042%=      5-min Rain = 0
KWA1 120408Z 29005KT 02/M10 A303 RMK A01 T00221096  RH  041%=      5-min Rain = 0
KWA1 120409Z 29005KT 02/M10 A303 RMK A01 T00221096  RH  041%=      5-min Rain = 0
KWA1 120410Z 30005KT 02/M10 A303 RMK A01 T00231096  RH  041%=      5-min Rain = 0
KWA1 120411Z 30005KT 02/M10 A303 RMK A01 T00231095  RH  041%=      5-min Rain = 0
KWA1 120412Z 31006KT 02/M10 A303 RMK A01 T00221095  RH  042%=      5-min Rain = 0
KWA1 120413Z 30005KT 02/M10 A303 RMK A01 T00231095  RH  041%=      5-min Rain = 0
KWA1 120414Z 30005KT 02/M10 A303 RMK A01 T00231095  RH  041%=      5-min Rain = 0
KWA1 120415Z 29005KT 02/M10 A303 RMK A01 T00231095  RH  042%=      5-min Rain = 0
KWA1 120416Z 30005KT 02/M09 A303 RMK A01 T00231094  RH  042%=      5-min Rain = 0
KWA1 120417Z 30005KT 02/M10 A303 RMK A01 T00241095  RH  041%=      5-min Rain = 0
KWA1 120418Z 30005KT 02/M10 A303 RMK A01 T00231095  RH  041%=      5-min Rain = 0
KWA1 120419Z 30005KT 02/M10 A303 RMK A01 T00221096  RH  041%=      5-min Rain = 0
KWA1 120420Z 30005KT 02/M10 A3031 RMK A01 T00221096  RH  041%=      5-min Rain = 0
KWA1 120421Z 30005KT 02/M10 A3031 RMK A01 T00201096  RH  042%=      5-min Rain = 0
KWA1 120422Z 30006KT 02/M10 A3031 RMK A01 T00181096  RH  043%=      5-min Rain = 0
KWA1 120423Z 30005KT 02/M10 A3031 RMK A01 T00171095  RH  043%=      5-min Rain = 0
KWA1 120424Z 30006KT 02/M10 A3031 RMK A01 T00171095  RH  043%=      5-min Rain = 0
KWA1 120425Z 30006KT 02/M10 A3031 RMK A01 T00181095  RH  043%=      5-min Rain = 0
KWA1 120426Z 31007KT 02/M10 A3031 RMK A01 T00211095  RH  042%=      5-min Rain = 0
KWA1 120427Z 31007KT 02/M10 A3031 RMK A01 T00231095  RH  041%=      5-min Rain = 0
KWA1 120428Z 31007KT 02/M10 A3031 RMK A01 T00221096  RH  041%=      5-min Rain = 0
KWA1 120429Z 31007KT 02/M10 A3031 RMK A01 T00221096  RH  041%=      5-min Rain = 0
KWA1 120430Z 31007KT 03/M09 A3031 RMK A01 T00251094  RH  041%=      5-min Rain = 0
KWA1 120431Z 31007KT 03/M09 A3031 RMK A01 T00271094  RH  040%=      5-min Rain = 0
KWA1 120432Z 31007KT 03/M10 A3031 RMK A01 T00261095  RH  041%=      5-min Rain = 0
KWA1 120433Z 31008KT 02/M10 A3031 RMK A01 T00231095  RH  041%=      5-min Rain = 0
KWA1 120434Z 32008KT 02/M10 A3031 RMK A01 T00231095  RH  041%=      5-min Rain = 0
KWA1 120435Z 32008KT 02/M10 A3031 RMK A01 T00231095  RH  041%=      5-min Rain = 0
KWA1 120436Z 32008KT 02/M10 A3031 RMK A01 T00231095  RH  041%=      5-min Rain = 0
KWA1 120437Z 32007KT 02/M10 A3031 RMK A01 T00231095  RH  041%=      5-min Rain = 0
KWA1 120438Z 32007KT 02/M10 A3031 RMK A01 T00231095  RH  041%=      5-min Rain = 0
KWA1 120439Z 32008KT 02/M10 A3031 RMK A01 T00231095  RH  041%=      5-min Rain = 0
KWA1 120440Z 32008KT 02/M10 A3031 RMK A01 T00211095  RH  042%=      5-min Rain = 0
KWA1 120441Z 32008KT 02/M10 A3031 RMK A01 T00181096  RH  043%=      5-min Rain = 0
KWA1 120442Z 32008KT 02/M10 A3031 RMK A01 T00171095  RH  043%=      5-min Rain = 0
KWA1 120443Z 33008KT 02/M10 A3031 RMK A01 T00171095  RH  043%=      5-min Rain = 0
KWA1 120444Z 33009KT 02/M10 A3031 RMK A01 T00181095  RH  043%=      5-min Rain = 0
KWA1 120445Z 33008KT 02/M10 A3031 RMK A01 T00191095  RH  043%=      5-min Rain = 0
KWA1 120446Z 33008KT 02/M09 A3031 RMK A01 T00221094  RH  042%=      5-min Rain = 0
KWA1 120447Z 33009KT 02/M09 A3031 RMK A01 T00231094  RH  042%=      5-min Rain = 0
KWA1 120448Z 33008KT 03/M09 A3031 RMK A01 T00251093  RH  042%=      5-min Rain = 0
KWA1 120449Z 33008KT 03/M09 A3031 RMK A01 T00261092  RH  041%=      5-min Rain = 0
KWA1 120450Z 33008KT 03/M09 A3031 RMK A01 T00281092  RH  041%=      5-min Rain = 0
KWA1 120451Z 33008KT 03/M09 A3031 RMK A01 T00281093  RH  041%=      5-min Rain = 0
KWA1 120452Z 33008KT 02/M09 A3031 RMK A01 T00241093  RH  041%=      5-min Rain = 0
KWA1 120453Z 33008KT 02/M09 A3032 RMK A01 T00221093  RH  042%=      5-min Rain = 0
KWA1 120454Z 32008KT 02/M09 A3032 RMK A01 T00221092  RH  043%=      5-min Rain = 0
KWA1 120455Z 32009KT 02/M09 A3032 RMK A01 T00211092  RH  043%=      5-min Rain = 0
KWA1 120456Z 32008KT 02/M09 A3032 RMK A01 T00201092  RH  043%=      5-min Rain = 0
KWA1 120457Z 32008KT 02/M09 A3032 RMK A01 T00191092  RH  043%=      5-min Rain = 0
KWA1 120458Z 32009KT 02/M09 A3032 RMK A01 T00181092  RH  044%=      5-min Rain = 0
KWA1 120459Z 32009KT 02/M09 A3032 RMK A01 T00171093  RH  044%=      5-min Rain = 0
KWA1 120500Z 32008KT 02/M09 A3032 RMK A01 T00171093  RH  044%=      5-min Rain = 0
KWA1 120501Z 32009KT 02/M09 A3032 RMK A01 T00171093  RH  044%=      5-min Rain = 0
KWA1 120502Z 32007KT 02/M09 A3032 RMK A01 T00171093  RH  044%=      5-min Rain = 0
KWA1 120503Z 32007KT 02/M09 A3032 RMK A01 T00181092  RH  044%=      5-min Rain = 0
KWA1 120504Z 32007KT 02/M09 A3032 RMK A01 T00201092  RH  043%=      5-min Rain = 0
KWA1 120505Z 32008KT 02/M09 A3032 RMK A01 T00191093  RH  043%=      5-min Rain = 0
KWA1 120506Z 32008KT 02/M09 A3032 RMK A01 T00161094  RH  044%=      5-min Rain = 0
KWA1 120507Z 32008KT 02/M09 A3032 RMK A01 T00151094  RH  044%=      5-min Rain = 0
KWA1 120508Z 32008KT 01/M09 A3032 RMK A01 T00141094  RH  045%=      5-min Rain = 0
KWA1 120509Z 32008KT 01/M09 A3032 RMK A01 T00141093  RH  045%=      5-min Rain = 0
KWA1 120510Z 32008KT 01/M09 A3032 RMK A01 T00141093  RH  045%=      5-min Rain = 0
KWA1 120511Z 32008KT 02/M09 A3032 RMK A01 T00151092  RH  045%=      5-min Rain = 0
KWA1 120512Z 32008KT 02/M09 A3032 RMK A01 T00151092  RH  045%=      5-min Rain = 0
KWA1 120513Z 32007KT 02/M09 A3032 RMK A01 T00151092  RH  045%=      5-min Rain = 0
KWA1 120514Z 32007KT 01/M09 A3032 RMK A01 T00141093  RH  045%=      5-min Rain = 0
KWA1 120515Z 32007KT 02/M09 A3032 RMK A01 T00151093  RH  045%=      5-min Rain = 0
KWA1 120516Z 32008KT 01/M09 A3032 RMK A01 T00141094  RH  045%=      5-min Rain = 0
KWA1 120517Z 31008KT 01/M09 A3032 RMK A01 T00131094  RH  045%=      5-min Rain = 0
KWA1 120518Z 31008KT 01/M09 A3032 RMK A01 T00131093  RH  045%=      5-min Rain = 0
KWA1 120519Z 32008KT 01/M09 A3032 RMK A01 T00131092  RH  045%=      5-min Rain = 0
KWA1 120520Z 32008KT 01/M09 A3032 RMK A01 T00131092  RH  045%=      5-min Rain = 0
KWA1 120521Z 32008KT 01/M09 A3032 RMK A01 T00131092  RH  045%=      5-min Rain = 0
KWA1 120522Z 32008KT 01/M09 A3032 RMK A01 T00141092  RH  045%=      5-min Rain = 0
KWA1 120523Z 32008KT 01/M09 A3032 RMK A01 T00141092  RH  045%=      5-min Rain = 0
KWA1 120524Z 33008KT 01/M09 A3032 RMK A01 T00141092  RH  045%=      5-min Rain = 0
KWA1 120525Z 32008KT 01/M09 A3032 RMK A01 T00141092  RH  045%=      5-min Rain = 0
KWA1 120526Z 33008KT 01/M09 A3032 RMK A01 T00141091  RH  045%=      5-min Rain = 0
KWA1 120527Z 33008KT 01/M09 A3032 RMK A01 T00141091  RH  046%=      5-min Rain = 0
KWA1 120528Z 32007KT 01/M09 A3032 RMK A01 T00141091  RH  045%=      5-min Rain = 0
KWA1 120529Z 32007KT 02/M09 A3032 RMK A01 T00151091  RH  045%=      5-min Rain = 0
KWA1 120530Z 32008KT 02/M09 A3032 RMK A01 T00151091  RH  045%=      5-min Rain = 0
KWA1 120531Z 32007KT 02/M09 A3032 RMK A01 T00151091  RH  045%=      5-min Rain = 0
KWA1 120532Z 32007KT 01/M09 A3032 RMK A01 T00141092  RH  045%=      5-min Rain = 0
KWA1 120533Z 32007KT 01/M09 A3032 RMK A01 T00131092  RH  045%=      5-min Rain = 0
KWA1 120534Z 32006KT 01/M09 A3032 RMK A01 T00121093  RH  046%=      5-min Rain = 0
KWA1 120535Z 32006KT 01/M09 A3032 RMK A01 T00121092  RH  046%=      5-min Rain = 0
KWA1 120536Z 32006KT 01/M09 A3032 RMK A01 T00111092  RH  046%=      5-min Rain = 0
KWA1 120537Z 32006KT 01/M09 A3032 RMK A01 T00111092  RH  046%=      5-min Rain = 0
KWA1 120538Z 33006KT 01/M09 A3032 RMK A01 T00111093  RH  046%=      5-min Rain = 0
KWA1 120539Z 33006KT 01/M09 A3032 RMK A01 T00131092  RH  045%=      5-min Rain = 0
KWA1 120540Z 33006KT 01/M09 A3032 RMK A01 T00131093  RH  045%=      5-min Rain = 0
KWA1 120541Z 33006KT 01/M09 A3031 RMK A01 T00141093  RH  045%=      5-min Rain = 0
KWA1 120542Z 33006KT 01/M09 A3031 RMK A01 T00141092  RH  045%=      5-min Rain = 0
KWA1 120543Z 33006KT 02/M09 A3031 RMK A01 T00151093  RH  045%=      5-min Rain = 0
KWA1 120544Z 34006KT 02/M09 A3031 RMK A01 T00171092  RH  044%=      5-min Rain = 0
KWA1 120545Z 34006KT 02/M09 A3031 RMK A01 T00181092  RH  044%=      5-min Rain = 0
KWA1 120546Z 34007KT 02/M09 A3031 RMK A01 T00201092  RH  043%=      5-min Rain = 0
KWA1 120547Z 35007KT 02/M09 A3031 RMK A01 T00191093  RH  043%=      5-min Rain = 0
KWA1 120548Z 35007KT 02/M09 A3031 RMK A01 T00181093  RH  043%=      5-min Rain = 0
KWA1 120549Z 35007KT 02/M09 A3031 RMK A01 T00181093  RH  044%=      5-min Rain = 0
KWA1 120550Z 35007KT 02/M09 A3031 RMK A01 T00171092  RH  044%=      5-min Rain = 0
KWA1 120551Z 35007KT 02/M09 A3031 RMK A01 T00181092  RH  044%=      5-min Rain = 0
KWA1 120552Z 35007KT 02/M09 A3031 RMK A01 T00191092  RH  044%=      5-min Rain = 0
KWA1 120553Z 35007KT 02/M09 A3031 RMK A01 T00191092  RH  043%=      5-min Rain = 0
KWA1 120554Z 35007KT 02/M09 A3031 RMK A01 T00201092  RH  043%=      5-min Rain = 0
KWA1 120555Z 35006KT 02/M09 A3031 RMK A01 T00181092  RH  044%=      5-min Rain = 0
KWA1 120556Z 35006KT 02/M09 A3031 RMK A01 T00161093  RH  044%=      5-min Rain = 0
KWA1 120557Z 35006KT 01/M09 A3031 RMK A01 T00131093  RH  045%=      5-min Rain = 0
KWA1 120558Z 35007KT 01/M09 A3031 RMK A01 T00111093  RH  046%=      5-min Rain = 0
KWA1 120559Z 35007KT 01/M09 A3031 RMK A01 T00111092  RH  046%=      5-min Rain = 0

Page generated in 0.122 seconds.